Time,TemperatureF,DewpointF,PressureIn,WindDirection,WindDirectionDegrees,WindSpeedMPH,WindSpeedGustMPH,Humidity,HourlyPrecipIn,Conditions,Clouds,dailyrainin,SoftwareType,DateUTC
2013-07-23 00:00:00,84.0,78.0,29.95,SSW,202,8.0,8.0,84,0.00,,,0.00,TxWx,2013-07-23 05:00:00,
2013-07-23 00:02:00,84.0,79.0,29.95,South,180,12.0,14.0,84,0.00,,,0.00,TxWx,2013-07-23 05:02:00,
2013-07-23 00:03:00,84.0,79.0,29.95,SSW,202,6.0,6.0,84,0.00,,,0.00,TxWx,2013-07-23 05:03:00,
2013-07-23 00:04:00,84.0,78.0,29.95,SSW,202,14.0,14.0,84,0.00,,,0.00,TxWx,2013-07-23 05:04:00,
2013-07-23 00:05:00,84.0,78.0,29.95,South,180,7.0,9.0,84,0.00,,,0.00,TxWx,2013-07-23 05:05:00,
2013-07-23 00:06:00,84.0,78.0,29.95,SSE,157,12.0,12.0,84,0.00,,,0.00,TxWx,2013-07-23 05:06:00,
2013-07-23 00:08:00,84.0,78.0,29.95,South,180,15.0,15.0,84,0.00,,,0.00,TxWx,2013-07-23 05:08:00,
2013-07-23 00:09:00,84.0,78.0,29.95,SSW,202,16.0,16.0,84,0.00,,,0.00,TxWx,2013-07-23 05:09:00,
2013-07-23 00:12:00,84.0,78.0,29.95,South,180,7.0,8.0,84,0.00,,,0.00,TxWx,2013-07-23 05:12:00,
2013-07-23 00:13:00,84.0,78.0,29.95,South,180,13.0,16.0,84,0.00,,,0.00,TxWx,2013-07-23 05:13:00,
2013-07-23 00:14:00,84.0,78.0,29.95,South,180,13.0,13.0,84,0.00,,,0.00,TxWx,2013-07-23 05:14:00,
2013-07-23 00:15:00,84.0,78.0,29.95,SSW,202,8.0,8.0,84,0.00,,,0.00,TxWx,2013-07-23 05:15:00,
2013-07-23 00:17:00,84.0,79.0,29.95,SE,135,6.0,6.0,84,0.00,,,0.00,TxWx,2013-07-23 05:17:00,
2013-07-23 00:18:00,84.0,79.0,29.95,WSW,247,8.0,8.0,84,0.00,,,0.00,TxWx,2013-07-23 05:18:00,
2013-07-23 00:19:00,84.0,79.0,29.95,SSW,202,13.0,13.0,84,0.00,,,0.00,TxWx,2013-07-23 05:19:00,
2013-07-23 00:20:00,84.0,79.0,29.95,South,180,11.0,12.0,84,0.00,,,0.00,TxWx,2013-07-23 05:20:00,
2013-07-23 00:23:00,84.0,79.0,29.96,SSW,202,11.0,13.0,84,0.00,,,0.00,TxWx,2013-07-23 05:23:00,
2013-07-23 00:24:00,84.0,79.0,29.96,South,180,10.0,11.0,84,0.00,,,0.00,TxWx,2013-07-23 05:24:00,
2013-07-23 00:25:00,84.0,79.0,29.96,SW,225,10.0,11.0,84,0.00,,,0.00,TxWx,2013-07-23 05:25:00,
2013-07-23 00:26:00,84.0,79.0,29.95,SSW,202,6.0,6.0,84,0.00,,,0.00,TxWx,2013-07-23 05:26:00,
2013-07-23 00:29:00,84.0,79.0,29.95,SSE,157,5.0,6.0,84,0.00,,,0.00,TxWx,2013-07-23 05:29:00,
2013-07-23 00:30:00,84.0,79.0,29.95,South,180,12.0,16.0,84,0.00,,,0.00,TxWx,2013-07-23 05:30:00,
2013-07-23 00:31:00,84.0,79.0,29.96,South,180,14.0,16.0,84,0.00,,,0.00,TxWx,2013-07-23 05:31:00,
2013-07-23 00:35:00,84.0,79.0,29.96,SSW,202,7.0,9.0,84,0.00,,,0.00,TxWx,2013-07-23 05:35:00,
2013-07-23 00:36:00,84.0,79.0,29.96,SSE,157,13.0,13.0,84,0.00,,,0.00,TxWx,2013-07-23 05:36:00,
2013-07-23 00:37:00,84.0,79.0,29.95,SSW,202,8.0,9.0,84,0.00,,,0.00,TxWx,2013-07-23 05:37:00,
2013-07-23 00:38:00,84.0,79.0,29.96,South,180,13.0,13.0,84,0.00,,,0.00,TxWx,2013-07-23 05:38:00,
2013-07-23 00:40:00,84.0,79.0,29.95,South,180,16.0,16.0,84,0.00,,,0.00,TxWx,2013-07-23 05:40:00,
2013-07-23 00:41:00,84.0,79.0,29.95,SSW,202,8.0,10.0,84,0.00,,,0.00,TxWx,2013-07-23 05:41:00,
2013-07-23 00:43:00,84.0,79.0,29.95,SSE,157,10.0,10.0,84,0.00,,,0.00,TxWx,2013-07-23 05:43:00,
2013-07-23 00:44:00,84.0,79.0,29.95,SSW,202,14.0,17.0,84,0.00,,,0.00,TxWx,2013-07-23 05:44:00,
2013-07-23 00:46:00,84.0,79.0,29.96,South,180,18.0,18.0,84,0.00,,,0.00,TxWx,2013-07-23 05:46:00,
2013-07-23 00:50:00,84.0,79.0,29.95,SSW,202,13.0,14.0,84,0.00,,,0.00,TxWx,2013-07-23 05:50:00,
2013-07-23 00:51:00,84.0,79.0,29.95,SSW,202,6.0,8.0,84,0.00,,,0.00,TxWx,2013-07-23 05:51:00,
2013-07-23 00:52:00,84.0,79.0,29.95,SSW,202,3.0,5.0,84,0.00,,,0.00,TxWx,2013-07-23 05:52:00,
2013-07-23 00:53:00,84.0,79.0,29.95,SSE,157,13.0,13.0,84,0.00,,,0.00,TxWx,2013-07-23 05:53:00,
2013-07-23 00:57:00,84.0,79.0,29.95,SSW,202,8.0,8.0,84,0.00,,,0.00,TxWx,2013-07-23 05:57:00,
2013-07-23 00:58:00,84.0,79.0,29.95,South,180,8.0,10.0,84,0.00,,,0.00,TxWx,2013-07-23 05:58:00,
2013-07-23 00:59:00,84.0,79.0,29.95,South,180,12.0,12.0,84,0.00,,,0.00,TxWx,2013-07-23 05:59:00,
2013-07-23 01:02:00,84.0,79.0,29.95,South,180,11.0,11.0,84,0.00,,,0.00,TxWx,2013-07-23 06:02:00,
2013-07-23 01:03:00,84.0,79.0,29.95,South,180,12.0,12.0,84,0.00,,,0.00,TxWx,2013-07-23 06:03:00,
2013-07-23 01:04:00,84.0,79.0,29.95,South,180,5.0,5.0,84,0.00,,,0.00,TxWx,2013-07-23 06:04:00,
2013-07-23 01:05:00,84.0,79.0,29.95,South,180,11.0,13.0,85,0.00,,,0.00,TxWx,2013-07-23 06:05:00,
2013-07-23 01:08:00,84.0,79.0,29.95,SSW,202,6.0,6.0,85,0.00,,,0.00,TxWx,2013-07-23 06:08:00,
2013-07-23 01:09:00,84.0,79.0,29.95,SSE,157,19.0,19.0,85,0.00,,,0.00,TxWx,2013-07-23 06:09:00,
2013-07-23 01:11:00,84.0,79.0,29.95,SSW,202,8.0,8.0,85,0.00,,,0.00,TxWx,2013-07-23 06:11:00,
2013-07-23 01:12:00,84.0,79.0,29.95,SSE,157,12.0,12.0,85,0.00,,,0.00,TxWx,2013-07-23 06:12:00,
2013-07-23 01:15:00,84.0,79.0,29.95,South,180,9.0,9.0,85,0.00,,,0.00,TxWx,2013-07-23 06:15:00,
2013-07-23 01:16:00,84.0,79.0,29.95,South,180,15.0,15.0,85,0.00,,,0.00,TxWx,2013-07-23 06:16:00,
2013-07-23 01:18:00,84.0,79.0,29.95,SSE,157,5.0,6.0,85,0.00,,,0.00,TxWx,2013-07-23 06:18:00,
2013-07-23 01:20:00,84.0,79.0,29.95,SSE,157,12.0,12.0,85,0.00,,,0.00,TxWx,2013-07-23 06:20:00,
2013-07-23 01:21:00,84.0,79.0,29.95,South,180,8.0,8.0,85,0.00,,,0.00,TxWx,2013-07-23 06:21:00,
2013-07-23 01:23:00,84.0,79.0,29.95,SSE,157,13.0,13.0,85,0.00,,,0.00,TxWx,2013-07-23 06:23:00,
2013-07-23 01:26:00,84.0,79.0,29.94,SSW,202,15.0,15.0,85,0.00,,,0.00,TxWx,2013-07-23 06:26:00,
2013-07-23 01:28:00,84.0,79.0,29.94,South,180,13.0,13.0,85,0.00,,,0.00,TxWx,2013-07-23 06:28:00,
2013-07-23 01:29:00,84.0,79.0,29.94,SSW,202,10.0,11.0,85,0.00,,,0.00,TxWx,2013-07-23 06:29:00,
2013-07-23 01:31:00,84.0,79.0,29.94,South,180,8.0,10.0,85,0.00,,,0.00,TxWx,2013-07-23 06:31:00,
2013-07-23 01:33:00,84.0,79.0,29.94,South,180,20.0,20.0,85,0.00,,,0.00,TxWx,2013-07-23 06:33:00,
2013-07-23 01:34:00,84.0,79.0,29.94,South,180,14.0,14.0,85,0.00,,,0.00,TxWx,2013-07-23 06:34:00,
2013-07-23 01:35:00,84.0,79.0,29.94,SSE,157,7.0,8.0,85,0.00,,,0.00,TxWx,2013-07-23 06:35:00,
2013-07-23 01:37:00,84.0,79.0,29.94,SSW,202,11.0,13.0,84,0.00,,,0.00,TxWx,2013-07-23 06:37:00,
2013-07-23 01:38:00,84.0,79.0,29.94,SSE,157,9.0,9.0,84,0.00,,,0.00,TxWx,2013-07-23 06:38:00,
2013-07-23 01:39:00,84.0,79.0,29.94,South,180,8.0,8.0,84,0.00,,,0.00,TxWx,2013-07-23 06:39:00,
2013-07-23 01:40:00,84.0,79.0,29.94,SSE,157,12.0,12.0,84,0.00,,,0.00,TxWx,2013-07-23 06:40:00,
2013-07-23 01:41:00,84.0,79.0,29.94,SSW,202,11.0,11.0,84,0.00,,,0.00,TxWx,2013-07-23 06:41:00,
2013-07-23 01:42:00,84.0,79.0,29.94,South,180,10.0,10.0,84,0.00,,,0.00,TxWx,2013-07-23 06:42:00,
2013-07-23 01:44:00,84.0,79.0,29.94,SSW,202,9.0,9.0,84,0.00,,,0.00,TxWx,2013-07-23 06:44:00,
2013-07-23 01:45:00,84.0,79.0,29.94,SSW,202,5.0,5.0,84,0.00,,,0.00,TxWx,2013-07-23 06:45:00,
2013-07-23 01:46:00,84.0,79.0,29.94,South,180,11.0,13.0,84,0.00,,,0.00,TxWx,2013-07-23 06:46:00,
2013-07-23 01:48:00,84.0,79.0,29.94,South,180,8.0,9.0,85,0.00,,,0.00,TxWx,2013-07-23 06:48:00,
2013-07-23 01:49:00,84.0,79.0,29.94,SSE,157,13.0,13.0,85,0.00,,,0.00,TxWx,2013-07-23 06:49:00,
2013-07-23 01:52:00,84.0,79.0,29.94,SW,225,8.0,12.0,85,0.00,,,0.00,TxWx,2013-07-23 06:52:00,
2013-07-23 01:53:00,84.0,79.0,29.94,SE,135,10.0,14.0,85,0.00,,,0.00,TxWx,2013-07-23 06:53:00,
2013-07-23 01:54:00,84.0,79.0,29.94,South,180,16.0,16.0,85,0.00,,,0.00,TxWx,2013-07-23 06:54:00,
2013-07-23 01:55:00,84.0,79.0,29.94,South,180,12.0,12.0,85,0.00,,,0.00,TxWx,2013-07-23 06:55:00,
2013-07-23 01:57:00,84.0,79.0,29.94,South,180,6.0,6.0,85,0.00,,,0.00,TxWx,2013-07-23 06:57:00,
2013-07-23 01:59:00,84.0,79.0,29.94,South,180,13.0,14.0,85,0.00,,,0.00,TxWx,2013-07-23 06:59:00,
2013-07-23 02:00:00,84.0,79.0,29.94,South,180,12.0,14.0,85,0.00,,,0.00,TxWx,2013-07-23 07:00:00,
2013-07-23 02:02:00,84.0,79.0,29.94,SSE,157,14.0,14.0,84,0.00,,,0.00,TxWx,2013-07-23 07:02:00,
2013-07-23 02:06:00,84.0,79.0,29.94,SW,225,9.0,11.0,84,0.00,,,0.00,TxWx,2013-07-23 07:06:00,
2013-07-23 02:07:00,84.0,79.0,29.94,SW,225,5.0,5.0,84,0.00,,,0.00,TxWx,2013-07-23 07:07:00,
2013-07-23 02:08:00,84.0,79.0,29.94,SSW,202,5.0,8.0,84,0.00,,,0.00,TxWx,2013-07-23 07:08:00,
2013-07-23 02:11:00,84.0,79.0,29.94,SSW,202,6.0,7.0,84,0.00,,,0.00,TxWx,2013-07-23 07:11:00,
2013-07-23 02:13:00,84.0,79.0,29.94,SSW,202,9.0,9.0,84,0.00,,,0.00,TxWx,2013-07-23 07:13:00,
2013-07-23 02:14:00,84.0,79.0,29.94,SSW,202,10.0,12.0,84,0.00,,,0.00,TxWx,2013-07-23 07:14:00,
2013-07-23 02:15:00,84.0,79.0,29.94,SSE,157,5.0,5.0,84,0.00,,,0.00,TxWx,2013-07-23 07:15:00,
2013-07-23 02:17:00,84.0,79.0,29.94,SSW,202,6.0,6.0,84,0.00,,,0.00,TxWx,2013-07-23 07:17:00,
2013-07-23 02:21:00,84.0,79.0,29.94,SSW,202,6.0,9.0,84,0.00,,,0.00,TxWx,2013-07-23 07:21:00,
2013-07-23 02:23:00,84.0,79.0,29.94,SSW,202,12.0,12.0,84,0.00,,,0.00,TxWx,2013-07-23 07:23:00,
2013-07-23 02:25:00,84.0,79.0,29.94,SSW,202,5.0,5.0,85,0.00,,,0.00,TxWx,2013-07-23 07:25:00,
2013-07-23 02:26:00,83.0,78.0,29.94,South,180,5.0,6.0,85,0.00,,,0.00,TxWx,2013-07-23 07:26:00,
2013-07-23 02:28:00,84.0,79.0,29.94,WSW,247,6.0,8.0,85,0.00,,,0.00,TxWx,2013-07-23 07:28:00,
2013-07-23 02:30:00,84.0,79.0,29.94,South,180,8.0,10.0,85,0.00,,,0.00,TxWx,2013-07-23 07:30:00,
2013-07-23 02:31:00,84.0,79.0,29.94,SSW,202,7.0,7.0,85,0.00,,,0.00,TxWx,2013-07-23 07:31:00,
2013-07-23 02:32:00,83.0,78.0,29.94,SSW,202,9.0,9.0,85,0.00,,,0.00,TxWx,2013-07-23 07:32:00,
2013-07-23 02:34:00,83.0,78.0,29.94,SSW,202,13.0,14.0,85,0.00,,,0.00,TxWx,2013-07-23 07:34:00,
2013-07-23 02:37:00,83.0,78.0,29.94,SSW,202,14.0,16.0,85,0.00,,,0.00,TxWx,2013-07-23 07:37:00,
2013-07-23 02:38:00,83.0,78.0,29.94,SSW,202,11.0,11.0,85,0.00,,,0.00,TxWx,2013-07-23 07:38:00,
2013-07-23 02:39:00,83.0,78.0,29.94,South,180,12.0,12.0,85,0.00,,,0.00,TxWx,2013-07-23 07:39:00,
2013-07-23 02:41:00,83.0,78.0,29.94,SSW,202,8.0,8.0,85,0.00,,,0.00,TxWx,2013-07-23 07:41:00,
2013-07-23 02:42:00,83.0,78.0,29.94,SW,225,8.0,10.0,85,0.00,,,0.00,TxWx,2013-07-23 07:42:00,
2013-07-23 02:44:00,83.0,78.0,29.94,WSW,247,10.0,13.0,85,0.00,,,0.00,TxWx,2013-07-23 07:44:00,
2013-07-23 02:45:00,83.0,78.0,29.94,SSW,202,9.0,10.0,85,0.00,,,0.00,TxWx,2013-07-23 07:45:00,
2013-07-23 02:46:00,83.0,78.0,29.94,SSW,202,8.0,10.0,85,0.00,,,0.00,TxWx,2013-07-23 07:46:00,
2013-07-23 02:47:00,83.0,78.0,29.94,SSW,202,5.0,5.0,85,0.00,,,0.00,TxWx,2013-07-23 07:47:00,
2013-07-23 02:50:00,83.0,78.0,29.94,SSW,202,5.0,5.0,85,0.00,,,0.00,TxWx,2013-07-23 07:50:00,
2013-07-23 02:52:00,83.0,78.0,29.94,SSE,157,4.0,6.0,85,0.00,,,0.00,TxWx,2013-07-23 07:52:00,
2013-07-23 02:53:00,83.0,78.0,29.94,SSW,202,7.0,8.0,85,0.00,,,0.00,TxWx,2013-07-23 07:53:00,
2013-07-23 02:56:00,83.0,78.0,29.94,SW,225,5.0,5.0,85,0.00,,,0.00,TxWx,2013-07-23 07:56:00,
2013-07-23 02:58:00,83.0,78.0,29.94,SSW,202,6.0,6.0,85,0.00,,,0.00,TxWx,2013-07-23 07:58:00,
2013-07-23 02:59:00,83.0,78.0,29.94,South,180,5.0,5.0,85,0.00,,,0.00,TxWx,2013-07-23 07:59:00,
2013-07-23 03:00:00,83.0,78.0,29.94,SSW,202,11.0,11.0,85,0.00,,,0.00,TxWx,2013-07-23 08:00:00,
2013-07-23 03:02:00,83.0,78.0,29.94,South,180,6.0,6.0,85,0.00,,,0.00,TxWx,2013-07-23 08:02:00,
2013-07-23 03:03:00,83.0,78.0,29.94,South,180,9.0,9.0,85,0.00,,,0.00,TxWx,2013-07-23 08:03:00,
2013-07-23 03:04:00,83.0,78.0,29.94,SSW,202,9.0,10.0,85,0.00,,,0.00,TxWx,2013-07-23 08:04:00,
2013-07-23 03:05:00,83.0,78.0,29.94,SSE,157,10.0,11.0,85,0.00,,,0.00,TxWx,2013-07-23 08:05:00,
2013-07-23 03:07:00,83.0,78.0,29.94,SSW,202,6.0,8.0,85,0.00,,,0.00,TxWx,2013-07-23 08:07:00,
2013-07-23 03:09:00,83.0,78.0,29.94,South,180,6.0,10.0,85,0.00,,,0.00,TxWx,2013-07-23 08:09:00,
2013-07-23 03:10:00,83.0,78.0,29.94,SW,225,6.0,6.0,85,0.00,,,0.00,TxWx,2013-07-23 08:10:00,
2013-07-23 03:11:00,83.0,78.0,29.94,SSW,202,11.0,13.0,85,0.00,,,0.00,TxWx,2013-07-23 08:11:00,
2013-07-23 03:12:00,83.0,78.0,29.94,SSW,202,7.0,7.0,85,0.00,,,0.00,TxWx,2013-07-23 08:12:00,
2013-07-23 03:15:00,83.0,78.0,29.94,South,180,5.0,5.0,85,0.00,,,0.00,TxWx,2013-07-23 08:15:00,
2013-07-23 03:16:00,83.0,78.0,29.94,SSW,202,11.0,13.0,85,0.00,,,0.00,TxWx,2013-07-23 08:16:00,
2013-07-23 03:17:00,83.0,78.0,29.94,WSW,247,9.0,10.0,85,0.00,,,0.00,TxWx,2013-07-23 08:17:00,
2013-07-23 03:20:00,83.0,78.0,29.94,South,180,9.0,11.0,84,0.00,,,0.00,TxWx,2013-07-23 08:20:00,
2013-07-23 03:21:00,83.0,78.0,29.94,SSW,202,14.0,15.0,84,0.00,,,0.00,TxWx,2013-07-23 08:21:00,
2013-07-23 03:22:00,83.0,78.0,29.94,WSW,247,9.0,9.0,84,0.00,,,0.00,TxWx,2013-07-23 08:22:00,
2013-07-23 03:24:00,83.0,78.0,29.94,SSW,202,8.0,8.0,84,0.00,,,0.00,TxWx,2013-07-23 08:24:00,
2013-07-23 03:27:00,83.0,78.0,29.94,SSW,202,9.0,10.0,84,0.00,,,0.00,TxWx,2013-07-23 08:27:00,
2013-07-23 03:28:00,83.0,78.0,29.94,SSW,202,13.0,16.0,84,0.00,,,0.00,TxWx,2013-07-23 08:28:00,
2013-07-23 03:29:00,83.0,78.0,29.94,SSW,202,14.0,17.0,84,0.00,,,0.00,TxWx,2013-07-23 08:29:00,
2013-07-23 03:30:00,83.0,78.0,29.94,SW,225,12.0,12.0,84,0.00,,,0.00,TxWx,2013-07-23 08:30:00,
2013-07-23 03:33:00,83.0,77.0,29.94,SSW,202,9.0,9.0,84,0.00,,,0.00,TxWx,2013-07-23 08:33:00,
2013-07-23 03:34:00,83.0,77.0,29.94,SSW,202,7.0,7.0,84,0.00,,,0.00,TxWx,2013-07-23 08:34:00,
2013-07-23 03:35:00,83.0,77.0,29.93,SW,225,6.0,6.0,84,0.00,,,0.00,TxWx,2013-07-23 08:35:00,
2013-07-23 03:36:00,83.0,77.0,29.94,SW,225,7.0,9.0,84,0.00,,,0.00,TxWx,2013-07-23 08:36:00,
2013-07-23 03:40:00,83.0,77.0,29.94,SSW,202,10.0,10.0,84,0.00,,,0.00,TxWx,2013-07-23 08:40:00,
2013-07-23 03:41:00,83.0,77.0,29.93,SW,225,7.0,8.0,84,0.00,,,0.00,TxWx,2013-07-23 08:41:00,
2013-07-23 03:42:00,83.0,78.0,29.93,South,180,11.0,11.0,84,0.00,,,0.00,TxWx,2013-07-23 08:42:00,
2013-07-23 03:43:00,83.0,78.0,29.93,SSW,202,6.0,6.0,84,0.00,,,0.00,TxWx,2013-07-23 08:43:00,
2013-07-23 03:46:00,83.0,78.0,29.93,SSW,202,8.0,9.0,84,0.00,,,0.00,TxWx,2013-07-23 08:46:00,
2013-07-23 03:47:00,83.0,78.0,29.93,SSW,202,6.0,8.0,84,0.00,,,0.00,TxWx,2013-07-23 08:47:00,
2013-07-23 03:48:00,83.0,78.0,29.93,SSE,157,3.0,4.0,84,0.00,,,0.00,TxWx,2013-07-23 08:48:00,
2013-07-23 03:49:00,83.0,78.0,29.93,South,180,10.0,10.0,84,0.00,,,0.00,TxWx,2013-07-23 08:49:00,
2013-07-23 03:53:00,83.0,78.0,29.93,SW,225,13.0,13.0,84,0.00,,,0.00,TxWx,2013-07-23 08:53:00,
2013-07-23 03:54:00,83.0,78.0,29.93,South,180,8.0,8.0,84,0.00,,,0.00,TxWx,2013-07-23 08:54:00,
2013-07-23 03:55:00,83.0,78.0,29.93,SSW,202,8.0,10.0,84,0.00,,,0.00,TxWx,2013-07-23 08:55:00,
2013-07-23 03:56:00,83.0,78.0,29.94,SSW,202,13.0,14.0,84,0.00,,,0.00,TxWx,2013-07-23 08:56:00,
2013-07-23 03:58:00,83.0,78.0,29.94,SSW,202,12.0,12.0,84,0.00,,,0.00,TxWx,2013-07-23 08:58:00,
2013-07-23 03:59:00,83.0,78.0,29.94,SSW,202,10.0,10.0,84,0.00,,,0.00,TxWx,2013-07-23 08:59:00,
2013-07-23 04:02:00,83.0,78.0,29.94,WSW,247,6.0,6.0,84,0.00,,,0.00,TxWx,2013-07-23 09:02:00,
2013-07-23 04:04:00,82.0,77.0,29.94,SSW,202,11.0,11.0,84,0.00,,,0.00,TxWx,2013-07-23 09:04:00,
2013-07-23 04:05:00,83.0,78.0,29.94,SSW,202,17.0,17.0,84,0.00,,,0.00,TxWx,2013-07-23 09:05:00,
2013-07-23 04:08:00,83.0,78.0,29.94,SSW,202,11.0,13.0,84,0.00,,,0.00,TxWx,2013-07-23 09:08:00,
2013-07-23 04:10:00,83.0,78.0,29.94,SW,225,8.0,9.0,84,0.00,,,0.00,TxWx,2013-07-23 09:10:00,
2013-07-23 04:11:00,82.0,77.0,29.94,WSW,247,11.0,11.0,84,0.00,,,0.00,TxWx,2013-07-23 09:11:00,
2013-07-23 04:13:00,82.0,77.0,29.94,South,180,4.0,5.0,84,0.00,,,0.00,TxWx,2013-07-23 09:13:00,
2013-07-23 04:15:00,82.0,77.0,29.94,SW,225,6.0,7.0,84,0.00,,,0.00,TxWx,2013-07-23 09:15:00,
2013-07-23 04:17:00,82.0,77.0,29.94,SW,225,13.0,13.0,84,0.00,,,0.00,TxWx,2013-07-23 09:17:00,
2013-07-23 04:19:00,82.0,77.0,29.94,South,180,8.0,8.0,84,0.00,,,0.00,TxWx,2013-07-23 09:19:00,
2013-07-23 04:20:00,82.0,77.0,29.94,SW,225,5.0,7.0,84,0.00,,,0.00,TxWx,2013-07-23 09:20:00,
2013-07-23 04:22:00,82.0,77.0,29.94,SSW,202,10.0,10.0,84,0.00,,,0.00,TxWx,2013-07-23 09:22:00,
2013-07-23 04:23:00,82.0,77.0,29.94,South,180,15.0,16.0,84,0.00,,,0.00,TxWx,2013-07-23 09:23:00,
2013-07-23 04:25:00,82.0,77.0,29.94,South,180,13.0,14.0,84,0.00,,,0.00,TxWx,2013-07-23 09:25:00,
2013-07-23 04:26:00,82.0,77.0,29.94,SW,225,4.0,6.0,84,0.00,,,0.00,TxWx,2013-07-23 09:26:00,
2013-07-23 04:28:00,82.0,77.0,29.94,SSW,202,8.0,8.0,84,0.00,,,0.00,TxWx,2013-07-23 09:28:00,
2013-07-23 04:31:00,82.0,77.0,29.94,SSW,202,11.0,11.0,84,0.00,,,0.00,TxWx,2013-07-23 09:31:00,
2013-07-23 04:33:00,82.0,77.0,29.93,West,270,2.0,3.0,84,0.00,,,0.00,TxWx,2013-07-23 09:33:00,
2013-07-23 04:34:00,82.0,77.0,29.94,SW,225,10.0,13.0,84,0.00,,,0.00,TxWx,2013-07-23 09:34:00,
2013-07-23 04:35:00,82.0,77.0,29.93,SW,225,9.0,10.0,84,0.00,,,0.00,TxWx,2013-07-23 09:35:00,
2013-07-23 04:36:00,82.0,77.0,29.93,SSW,202,14.0,14.0,84,0.00,,,0.00,TxWx,2013-07-23 09:36:00,
2013-07-23 04:39:00,82.0,77.0,29.93,SW,225,11.0,11.0,84,0.00,,,0.00,TxWx,2013-07-23 09:39:00,
2013-07-23 04:42:00,82.0,77.0,29.94,SW,225,7.0,7.0,84,0.00,,,0.00,TxWx,2013-07-23 09:42:00,
2013-07-23 04:44:00,82.0,77.0,29.93,SSW,202,6.0,6.0,84,0.00,,,0.00,TxWx,2013-07-23 09:44:00,
2013-07-23 04:45:00,82.0,77.0,29.93,SW,225,8.0,8.0,84,0.00,,,0.00,TxWx,2013-07-23 09:45:00,
2013-07-23 04:47:00,82.0,77.0,29.93,SSW,202,11.0,11.0,84,0.00,,,0.00,TxWx,2013-07-23 09:47:00,
2013-07-23 04:51:00,82.0,77.0,29.93,SSW,202,10.0,10.0,84,0.00,,,0.00,TxWx,2013-07-23 09:51:00,
2013-07-23 04:52:00,82.0,77.0,29.93,SW,225,6.0,6.0,84,0.00,,,0.00,TxWx,2013-07-23 09:52:00,
2013-07-23 04:56:00,82.0,77.0,29.93,South,180,7.0,8.0,84,0.00,,,0.00,TxWx,2013-07-23 09:56:00,
2013-07-23 04:58:00,82.0,77.0,29.93,SSW,202,8.0,8.0,84,0.00,,,0.00,TxWx,2013-07-23 09:58:00,
2013-07-23 04:59:00,82.0,77.0,29.93,SSW,202,8.0,8.0,84,0.00,,,0.00,TxWx,2013-07-23 09:59:00,
2013-07-23 05:00:00,82.0,77.0,29.93,SW,225,8.0,8.0,84,0.00,,,0.00,TxWx,2013-07-23 10:00:00,
2013-07-23 05:03:00,82.0,77.0,29.93,South,180,7.0,8.0,85,0.00,,,0.00,TxWx,2013-07-23 10:03:00,
2013-07-23 05:04:00,82.0,77.0,29.93,SW,225,8.0,9.0,85,0.00,,,0.00,TxWx,2013-07-23 10:04:00,
2013-07-23 05:05:00,82.0,77.0,29.93,SW,225,11.0,11.0,85,0.00,,,0.00,TxWx,2013-07-23 10:05:00,
2013-07-23 05:06:00,82.0,77.0,29.93,SW,225,9.0,9.0,85,0.00,,,0.00,TxWx,2013-07-23 10:06:00,
2013-07-23 05:07:00,82.0,77.0,29.93,SSW,202,11.0,11.0,85,0.00,,,0.00,TxWx,2013-07-23 10:07:00,
2013-07-23 05:09:00,82.0,77.0,29.93,SSW,202,6.0,6.0,85,0.00,,,0.00,TxWx,2013-07-23 10:09:00,
2013-07-23 05:11:00,82.0,77.0,29.93,South,180,8.0,10.0,85,0.00,,,0.00,TxWx,2013-07-23 10:11:00,
2013-07-23 05:12:00,82.0,77.0,29.93,SSW,202,7.0,7.0,85,0.00,,,0.00,TxWx,2013-07-23 10:12:00,
2013-07-23 05:15:00,82.0,77.0,29.93,SSW,202,8.0,9.0,85,0.00,,,0.00,TxWx,2013-07-23 10:15:00,
2013-07-23 05:17:00,82.0,77.0,29.93,SSW,202,8.0,8.0,85,0.00,,,0.00,TxWx,2013-07-23 10:17:00,
2013-07-23 05:18:00,82.0,77.0,29.93,SSW,202,10.0,10.0,85,0.00,,,0.00,TxWx,2013-07-23 10:18:00,
2013-07-23 05:19:00,82.0,77.0,29.93,SSW,202,7.0,8.0,85,0.00,,,0.00,TxWx,2013-07-23 10:19:00,
2013-07-23 05:20:00,82.0,77.0,29.93,SSW,202,10.0,10.0,85,0.00,,,0.00,TxWx,2013-07-23 10:20:00,
2013-07-23 05:22:00,82.0,77.0,29.93,SSW,202,10.0,11.0,85,0.00,,,0.00,TxWx,2013-07-23 10:22:00,
2013-07-23 05:23:00,82.0,77.0,29.93,SSW,202,11.0,11.0,85,0.00,,,0.00,TxWx,2013-07-23 10:23:00,
2013-07-23 05:26:00,82.0,77.0,29.93,SSW,202,10.0,12.0,85,0.00,,,0.00,TxWx,2013-07-23 10:26:00,
2013-07-23 05:28:00,82.0,77.0,29.93,SSW,202,11.0,11.0,85,0.00,,,0.00,TxWx,2013-07-23 10:28:00,
2013-07-23 05:29:00,82.0,77.0,29.93,SSW,202,8.0,10.0,85,0.00,,,0.00,TxWx,2013-07-23 10:29:00,
2013-07-23 05:31:00,82.0,77.0,29.93,SSW,202,10.0,10.0,85,0.00,,,0.00,TxWx,2013-07-23 10:31:00,
2013-07-23 05:33:00,82.0,77.0,29.93,SSW,202,10.0,11.0,85,0.00,,,0.00,TxWx,2013-07-23 10:33:00,
2013-07-23 05:34:00,82.0,77.0,29.93,South,180,11.0,11.0,85,0.00,,,0.00,TxWx,2013-07-23 10:34:00,
2013-07-23 05:35:00,82.0,77.0,29.93,SSW,202,11.0,11.0,85,0.00,,,0.00,TxWx,2013-07-23 10:35:00,
2013-07-23 05:36:00,82.0,77.0,29.93,SSW,202,6.0,6.0,85,0.00,,,0.00,TxWx,2013-07-23 10:36:00,
2013-07-23 05:40:00,82.0,77.0,29.93,South,180,10.0,10.0,85,0.00,,,0.00,TxWx,2013-07-23 10:40:00,
2013-07-23 05:41:00,82.0,77.0,29.93,SW,225,8.0,9.0,85,0.00,,,0.00,TxWx,2013-07-23 10:41:00,
2013-07-23 05:43:00,82.0,77.0,29.93,SSW,202,5.0,6.0,85,0.00,,,0.00,TxWx,2013-07-23 10:43:00,
2013-07-23 05:47:00,82.0,77.0,29.93,SW,225,6.0,7.0,85,0.00,,,0.00,TxWx,2013-07-23 10:47:00,
2013-07-23 05:48:00,82.0,77.0,29.93,SSW,202,8.0,8.0,85,0.00,,,0.00,TxWx,2013-07-23 10:48:00,
2013-07-23 05:51:00,82.0,77.0,29.93,SSW,202,4.0,4.0,85,0.00,,,0.00,TxWx,2013-07-23 10:51:00,
2013-07-23 05:52:00,82.0,77.0,29.93,SW,225,7.0,8.0,85,0.00,,,0.00,TxWx,2013-07-23 10:52:00,
2013-07-23 05:53:00,82.0,77.0,29.93,SW,225,10.0,10.0,85,0.00,,,0.00,TxWx,2013-07-23 10:53:00,
2013-07-23 05:54:00,82.0,77.0,29.93,SSW,202,14.0,14.0,85,0.00,,,0.00,TxWx,2013-07-23 10:54:00,
2013-07-23 05:55:00,82.0,77.0,29.93,SSW,202,10.0,10.0,85,0.00,,,0.00,TxWx,2013-07-23 10:55:00,
2013-07-23 05:58:00,82.0,77.0,29.93,SSW,202,6.0,6.0,85,0.00,,,0.00,TxWx,2013-07-23 10:58:00,
2013-07-23 05:59:00,82.0,77.0,29.93,SW,225,9.0,9.0,85,0.00,,,0.00,TxWx,2013-07-23 10:59:00,
2013-07-23 06:01:00,82.0,77.0,29.94,SW,225,15.0,15.0,85,0.00,,,0.00,TxWx,2013-07-23 11:01:00,
2013-07-23 06:02:00,82.0,77.0,29.94,SSW,202,11.0,11.0,85,0.00,,,0.00,TxWx,2013-07-23 11:02:00,
2013-07-23 06:04:00,82.0,77.0,29.94,SSW,202,7.0,7.0,85,0.00,,,0.00,TxWx,2013-07-23 11:04:00,
2013-07-23 06:07:00,82.0,77.0,29.94,South,180,5.0,5.0,85,0.00,,,0.00,TxWx,2013-07-23 11:07:00,
2013-07-23 06:08:00,82.0,77.0,29.94,SSW,202,5.0,5.0,85,0.00,,,0.00,TxWx,2013-07-23 11:08:00,
2013-07-23 06:11:00,82.0,77.0,29.94,South,180,6.0,7.0,85,0.00,,,0.00,TxWx,2013-07-23 11:11:00,
2013-07-23 06:12:00,82.0,77.0,29.94,SSW,202,5.0,5.0,85,0.00,,,0.00,TxWx,2013-07-23 11:12:00,
2013-07-23 06:13:00,82.0,77.0,29.94,SW,225,5.0,5.0,85,0.00,,,0.00,TxWx,2013-07-23 11:13:00,
2013-07-23 06:14:00,82.0,77.0,29.94,SSW,202,5.0,5.0,85,0.00,,,0.00,TxWx,2013-07-23 11:14:00,
2013-07-23 06:16:00,82.0,77.0,29.94,South,180,7.0,9.0,85,0.00,,,0.00,TxWx,2013-07-23 11:16:00,
2013-07-23 06:18:00,82.0,77.0,29.94,South,180,6.0,6.0,85,0.00,,,0.00,TxWx,2013-07-23 11:18:00,
2013-07-23 06:20:00,82.0,77.0,29.95,SW,225,6.0,6.0,85,0.00,,,0.00,TxWx,2013-07-23 11:20:00,
2013-07-23 06:21:00,82.0,77.0,29.95,SW,225,8.0,8.0,85,0.00,,,0.00,TxWx,2013-07-23 11:21:00,
2013-07-23 06:22:00,82.0,77.0,29.94,SSW,202,6.0,6.0,85,0.00,,,0.00,TxWx,2013-07-23 11:22:00,
2013-07-23 06:25:00,82.0,77.0,29.95,WSW,247,8.0,8.0,85,0.00,,,0.00,TxWx,2013-07-23 11:25:00,
2013-07-23 06:27:00,82.0,77.0,29.95,SW,225,4.0,4.0,85,0.00,,,0.00,TxWx,2013-07-23 11:27:00,
2013-07-23 06:28:00,82.0,77.0,29.95,SW,225,6.0,6.0,86,0.00,,,0.00,TxWx,2013-07-23 11:28:00,
2013-07-23 06:31:00,82.0,77.0,29.95,SW,225,5.0,5.0,86,0.00,,,0.00,TxWx,2013-07-23 11:31:00,
2013-07-23 06:32:00,82.0,77.0,29.95,SW,225,6.0,7.0,86,0.00,,,0.00,TxWx,2013-07-23 11:32:00,
2013-07-23 06:33:00,82.0,77.0,29.95,SW,225,6.0,6.0,86,0.00,,,0.00,TxWx,2013-07-23 11:33:00,
2013-07-23 06:36:00,82.0,77.0,29.95,SW,225,11.0,11.0,86,0.00,,,0.00,TxWx,2013-07-23 11:36:00,
2013-07-23 06:37:00,82.0,77.0,29.95,SW,225,5.0,5.0,86,0.00,,,0.00,TxWx,2013-07-23 11:37:00,
2013-07-23 06:39:00,82.0,77.0,29.95,WSW,247,8.0,8.0,86,0.00,,,0.00,TxWx,2013-07-23 11:39:00,
2013-07-23 06:42:00,82.0,77.0,29.95,WSW,247,8.0,8.0,86,0.00,,,0.00,TxWx,2013-07-23 11:42:00,
2013-07-23 06:43:00,82.0,77.0,29.95,WSW,247,3.0,4.0,86,0.00,,,0.00,TxWx,2013-07-23 11:43:00,
2013-07-23 06:45:00,82.0,77.0,29.95,WSW,247,4.0,5.0,86,0.00,,,0.00,TxWx,2013-07-23 11:45:00,
2013-07-23 06:46:00,82.0,77.0,29.95,SW,225,8.0,8.0,86,0.00,,,0.00,TxWx,2013-07-23 11:46:00,
2013-07-23 06:48:00,82.0,77.0,29.95,SW,225,8.0,10.0,86,0.00,,,0.00,TxWx,2013-07-23 11:48:00,
2013-07-23 06:50:00,82.0,77.0,29.95,SSW,202,5.0,5.0,86,0.00,,,0.00,TxWx,2013-07-23 11:50:00,
2013-07-23 06:51:00,82.0,77.0,29.95,SW,225,5.0,5.0,86,0.00,,,0.00,TxWx,2013-07-23 11:51:00,
2013-07-23 06:54:00,82.0,77.0,29.95,WSW,247,6.0,6.0,86,0.00,,,0.00,TxWx,2013-07-23 11:54:00,
2013-07-23 06:55:00,82.0,77.0,29.95,SW,225,5.0,6.0,86,0.00,,,0.00,TxWx,2013-07-23 11:55:00,
2013-07-23 06:56:00,82.0,77.0,29.95,SW,225,5.0,6.0,86,0.00,,,0.00,TxWx,2013-07-23 11:56:00,
2013-07-23 06:59:00,82.0,77.0,29.95,SW,225,5.0,5.0,86,0.00,,,0.00,TxWx,2013-07-23 11:59:00,
2013-07-23 07:00:00,82.0,77.0,29.95,SW,225,6.0,7.0,86,0.00,,,0.00,TxWx,2013-07-23 12:00:00,
2013-07-23 07:01:00,82.0,77.0,29.95,SSW,202,9.0,10.0,86,0.00,,,0.00,TxWx,2013-07-23 12:01:00,
2013-07-23 07:03:00,82.0,77.0,29.95,SSW,202,8.0,8.0,86,0.00,,,0.00,TxWx,2013-07-23 12:03:00,
2013-07-23 07:05:00,82.0,77.0,29.95,SW,225,7.0,7.0,86,0.00,,,0.00,TxWx,2013-07-23 12:05:00,
2013-07-23 07:06:00,82.0,77.0,29.95,SSW,202,6.0,6.0,86,0.00,,,0.00,TxWx,2013-07-23 12:06:00,
2013-07-23 07:08:00,82.0,77.0,29.95,WSW,247,8.0,9.0,86,0.00,,,0.00,TxWx,2013-07-23 12:08:00,
2013-07-23 07:11:00,81.0,76.0,29.95,SW,225,4.0,4.0,86,0.00,,,0.00,TxWx,2013-07-23 12:11:00,
2013-07-23 07:12:00,81.0,76.0,29.95,SSW,202,9.0,9.0,86,0.00,,,0.00,TxWx,2013-07-23 12:12:00,
2013-07-23 07:13:00,81.0,76.0,29.95,SSW,202,11.0,11.0,86,0.00,,,0.00,TxWx,2013-07-23 12:13:00,
2013-07-23 07:14:00,81.0,76.0,29.95,SSW,202,5.0,6.0,86,0.00,,,0.00,TxWx,2013-07-23 12:14:00,
2013-07-23 07:18:00,82.0,77.0,29.95,SW,225,10.0,11.0,86,0.00,,,0.00,TxWx,2013-07-23 12:18:00,
2013-07-23 07:19:00,81.0,76.0,29.95,South,180,8.0,9.0,85,0.00,,,0.00,TxWx,2013-07-23 12:19:00,
2013-07-23 07:21:00,82.0,77.0,29.95,SW,225,5.0,6.0,85,0.00,,,0.00,TxWx,2013-07-23 12:21:00,
2013-07-23 07:24:00,82.0,77.0,29.95,SW,225,8.0,8.0,85,0.00,,,0.00,TxWx,2013-07-23 12:24:00,
2013-07-23 07:26:00,82.0,77.0,29.95,SSW,202,6.0,7.0,85,0.00,,,0.00,TxWx,2013-07-23 12:26:00,
2013-07-23 07:29:00,82.0,77.0,29.95,South,180,10.0,11.0,85,0.00,,,0.00,TxWx,2013-07-23 12:29:00,
2013-07-23 07:30:00,82.0,77.0,29.95,SSW,202,6.0,6.0,85,0.00,,,0.00,TxWx,2013-07-23 12:30:00,
2013-07-23 07:33:00,82.0,77.0,29.95,SW,225,6.0,7.0,85,0.00,,,0.00,TxWx,2013-07-23 12:33:00,
2013-07-23 07:34:00,82.0,77.0,29.95,SW,225,3.0,3.0,85,0.00,,,0.00,TxWx,2013-07-23 12:34:00,
2013-07-23 07:35:00,82.0,77.0,29.95,SW,225,6.0,7.0,85,0.00,,,0.00,TxWx,2013-07-23 12:35:00,
2013-07-23 07:37:00,82.0,77.0,29.95,SW,225,5.0,5.0,85,0.00,,,0.00,TxWx,2013-07-23 12:37:00,
2013-07-23 07:39:00,82.0,77.0,29.95,SSW,202,8.0,8.0,85,0.00,,,0.00,TxWx,2013-07-23 12:39:00,
2013-07-23 07:40:00,82.0,77.0,29.96,WSW,247,5.0,6.0,85,0.00,,,0.00,TxWx,2013-07-23 12:40:00,
2013-07-23 07:41:00,82.0,77.0,29.95,SW,225,4.0,4.0,85,0.00,,,0.00,TxWx,2013-07-23 12:41:00,
2013-07-23 07:43:00,82.0,77.0,29.96,SW,225,10.0,10.0,85,0.00,,,0.00,TxWx,2013-07-23 12:43:00,
2013-07-23 07:44:00,82.0,77.0,29.96,SW,225,5.0,6.0,85,0.00,,,0.00,TxWx,2013-07-23 12:44:00,
2013-07-23 07:46:00,82.0,77.0,29.96,SSW,202,8.0,11.0,85,0.00,,,0.00,TxWx,2013-07-23 12:46:00,
2013-07-23 07:47:00,82.0,77.0,29.96,SSW,202,9.0,9.0,85,0.00,,,0.00,TxWx,2013-07-23 12:47:00,
2013-07-23 07:49:00,82.0,77.0,29.96,SSW,202,6.0,6.0,85,0.00,,,0.00,TxWx,2013-07-23 12:49:00,
2013-07-23 07:50:00,82.0,77.0,29.95,South,180,8.0,10.0,85,0.00,,,0.00,TxWx,2013-07-23 12:50:00,
2013-07-23 07:51:00,82.0,77.0,29.96,SW,225,8.0,8.0,85,0.00,,,0.00,TxWx,2013-07-23 12:51:00,
2013-07-23 07:52:00,82.0,77.0,29.96,SW,225,5.0,5.0,85,0.00,,,0.00,TxWx,2013-07-23 12:52:00,
2013-07-23 07:56:00,82.0,77.0,29.96,SW,225,5.0,6.0,85,0.00,,,0.00,TxWx,2013-07-23 12:56:00,
2013-07-23 07:57:00,82.0,77.0,29.96,SSW,202,10.0,10.0,85,0.00,,,0.00,TxWx,2013-07-23 12:57:00,
2013-07-23 07:58:00,82.0,77.0,29.96,SSW,202,8.0,9.0,85,0.00,,,0.00,TxWx,2013-07-23 12:58:00,
2013-07-23 07:59:00,82.0,77.0,29.96,SSW,202,8.0,8.0,84,0.00,,,0.00,TxWx,2013-07-23 12:59:00,
2013-07-23 08:03:00,83.0,78.0,29.96,SSW,202,3.0,5.0,85,0.00,,,0.00,TxWx,2013-07-23 13:03:00,
2013-07-23 08:04:00,83.0,78.0,29.96,SSW,202,5.0,6.0,85,0.00,,,0.00,TxWx,2013-07-23 13:04:00,
2013-07-23 08:06:00,83.0,78.0,29.96,SW,225,8.0,8.0,84,0.00,,,0.00,TxWx,2013-07-23 13:06:00,
2013-07-23 08:08:00,83.0,78.0,29.96,SSW,202,5.0,6.0,84,0.00,,,0.00,TxWx,2013-07-23 13:08:00,
2013-07-23 08:10:00,83.0,78.0,29.96,SSE,157,3.0,4.0,84,0.00,,,0.00,TxWx,2013-07-23 13:10:00,
2013-07-23 08:11:00,83.0,78.0,29.96,SW,225,4.0,4.0,84,0.00,,,0.00,TxWx,2013-07-23 13:11:00,
2013-07-23 08:13:00,83.0,78.0,29.96,SSW,202,8.0,8.0,84,0.00,,,0.00,TxWx,2013-07-23 13:13:00,
2013-07-23 08:16:00,83.0,78.0,29.96,SSW,202,6.0,7.0,84,0.00,,,0.00,TxWx,2013-07-23 13:16:00,
2013-07-23 08:18:00,83.0,78.0,29.96,SSW,202,8.0,9.0,84,0.00,,,0.00,TxWx,2013-07-23 13:18:00,
2013-07-23 08:20:00,83.0,77.0,29.96,South,180,12.0,12.0,84,0.00,,,0.00,TxWx,2013-07-23 13:20:00,
2013-07-23 08:21:00,83.0,77.0,29.96,SSW,202,10.0,10.0,84,0.00,,,0.00,TxWx,2013-07-23 13:21:00,
2013-07-23 08:22:00,83.0,77.0,29.96,SSW,202,6.0,6.0,84,0.00,,,0.00,TxWx,2013-07-23 13:22:00,
2013-07-23 08:24:00,83.0,77.0,29.96,SSW,202,5.0,5.0,84,0.00,,,0.00,TxWx,2013-07-23 13:24:00,
2013-07-23 08:25:00,83.0,77.0,29.96,SSW,202,10.0,10.0,84,0.00,,,0.00,TxWx,2013-07-23 13:25:00,
2013-07-23 08:28:00,84.0,78.0,29.96,SW,225,5.0,6.0,84,0.00,,,0.00,TxWx,2013-07-23 13:28:00,
2013-07-23 08:30:00,83.0,77.0,29.96,SSW,202,14.0,14.0,83,0.00,,,0.00,TxWx,2013-07-23 13:30:00,
2013-07-23 08:31:00,84.0,78.0,29.96,SSW,202,10.0,12.0,83,0.00,,,0.00,TxWx,2013-07-23 13:31:00,
2013-07-23 08:33:00,84.0,78.0,29.96,SSW,202,10.0,13.0,83,0.00,,,0.00,TxWx,2013-07-23 13:33:00,
2013-07-23 08:34:00,84.0,78.0,29.96,SSW,202,8.0,9.0,83,0.00,,,0.00,TxWx,2013-07-23 13:34:00,
2013-07-23 08:35:00,84.0,78.0,29.96,SW,225,6.0,6.0,83,0.00,,,0.00,TxWx,2013-07-23 13:35:00,
2013-07-23 08:38:00,84.0,78.0,29.96,South,180,5.0,5.0,82,0.00,,,0.00,TxWx,2013-07-23 13:38:00,
2013-07-23 08:39:00,84.0,78.0,29.96,SW,225,12.0,14.0,82,0.00,,,0.00,TxWx,2013-07-23 13:39:00,
2013-07-23 08:40:00,84.0,78.0,29.96,SSW,202,8.0,8.0,82,0.00,,,0.00,TxWx,2013-07-23 13:40:00,
2013-07-23 08:44:00,84.0,78.0,29.96,SSW,202,9.0,10.0,81,0.00,,,0.00,TxWx,2013-07-23 13:44:00,
2013-07-23 08:46:00,84.0,77.0,29.96,SSW,202,16.0,17.0,81,0.00,,,0.00,TxWx,2013-07-23 13:46:00,
2013-07-23 08:47:00,84.0,77.0,29.96,SSW,202,10.0,11.0,81,0.00,,,0.00,TxWx,2013-07-23 13:47:00,
2013-07-23 08:49:00,84.0,77.0,29.96,SSW,202,8.0,8.0,81,0.00,,,0.00,TxWx,2013-07-23 13:49:00,
2013-07-23 08:50:00,85.0,78.0,29.96,SSW,202,10.0,11.0,81,0.00,,,0.00,TxWx,2013-07-23 13:50:00,
2013-07-23 08:52:00,85.0,78.0,29.96,SSW,202,8.0,11.0,80,0.00,,,0.00,TxWx,2013-07-23 13:52:00,
2013-07-23 08:53:00,85.0,78.0,29.96,SSW,202,10.0,10.0,80,0.00,,,0.00,TxWx,2013-07-23 13:53:00,
2013-07-23 08:55:00,85.0,78.0,29.96,SSW,202,10.0,10.0,80,0.00,,,0.00,TxWx,2013-07-23 13:55:00,
2013-07-23 08:58:00,85.0,78.0,29.96,SW,225,7.0,8.0,80,0.00,,,0.00,TxWx,2013-07-23 13:58:00,
2013-07-23 09:00:00,85.0,78.0,29.96,SSW,202,3.0,3.0,80,0.00,,,0.00,TxWx,2013-07-23 14:00:00,
2013-07-23 09:02:00,85.0,78.0,29.96,SSW,202,10.0,12.0,79,0.00,,,0.00,TxWx,2013-07-23 14:02:00,
2013-07-23 09:03:00,85.0,78.0,29.96,South,180,14.0,14.0,79,0.00,,,0.00,TxWx,2013-07-23 14:03:00,
2013-07-23 09:04:00,85.0,78.0,29.97,SW,225,12.0,12.0,79,0.00,,,0.00,TxWx,2013-07-23 14:04:00,
2013-07-23 09:05:00,85.0,77.0,29.97,SSW,202,11.0,11.0,78,0.00,,,0.00,TxWx,2013-07-23 14:05:00,
2013-07-23 09:07:00,85.0,77.0,29.96,SSW,202,6.0,6.0,78,0.00,,,0.00,TxWx,2013-07-23 14:07:00,
2013-07-23 09:08:00,85.0,77.0,29.97,SSW,202,8.0,8.0,78,0.00,,,0.00,TxWx,2013-07-23 14:08:00,
2013-07-23 09:10:00,85.0,77.0,29.97,South,180,10.0,11.0,78,0.00,,,0.00,TxWx,2013-07-23 14:10:00,
2013-07-23 09:13:00,85.0,77.0,29.97,SSW,202,15.0,16.0,78,0.00,,,0.00,TxWx,2013-07-23 14:13:00,
2013-07-23 09:14:00,85.0,77.0,29.97,SW,225,6.0,6.0,77,0.00,,,0.00,TxWx,2013-07-23 14:14:00,
2013-07-23 09:17:00,85.0,77.0,29.97,SSE,157,11.0,14.0,77,0.00,,,0.00,TxWx,2013-07-23 14:17:00,
2013-07-23 09:19:00,85.0,77.0,29.97,SSW,202,12.0,14.0,77,0.00,,,0.00,TxWx,2013-07-23 14:19:00,
2013-07-23 09:20:00,85.0,77.0,29.97,SW,225,6.0,7.0,77,0.00,,,0.00,TxWx,2013-07-23 14:20:00,
2013-07-23 09:21:00,85.0,77.0,29.97,SW,225,14.0,16.0,77,0.00,,,0.00,TxWx,2013-07-23 14:21:00,
2013-07-23 09:24:00,86.0,78.0,29.96,South,180,8.0,10.0,77,0.00,,,0.00,TxWx,2013-07-23 14:24:00,
2013-07-23 09:25:00,86.0,78.0,29.97,SW,225,7.0,7.0,77,0.00,,,0.00,TxWx,2013-07-23 14:25:00,
2013-07-23 09:26:00,86.0,78.0,29.96,South,180,10.0,10.0,77,0.00,,,0.00,TxWx,2013-07-23 14:26:00,
2013-07-23 09:27:00,86.0,78.0,29.96,SSW,202,13.0,13.0,76,0.00,,,0.00,TxWx,2013-07-23 14:27:00,
2013-07-23 09:29:00,86.0,77.0,29.96,SSE,157,14.0,16.0,76,0.00,,,0.00,TxWx,2013-07-23 14:29:00,
2013-07-23 09:31:00,86.0,77.0,29.96,WSW,247,13.0,13.0,76,0.00,,,0.00,TxWx,2013-07-23 14:31:00,
2013-07-23 09:32:00,86.0,77.0,29.97,SSW,202,18.0,18.0,75,0.00,,,0.00,TxWx,2013-07-23 14:32:00,
2013-07-23 09:33:00,86.0,77.0,29.96,South,180,8.0,11.0,75,0.00,,,0.00,TxWx,2013-07-23 14:33:00,
2013-07-23 09:35:00,86.0,77.0,29.97,SSW,202,16.0,18.0,75,0.00,,,0.00,TxWx,2013-07-23 14:35:00,
2013-07-23 09:38:00,86.0,77.0,29.96,SSW,202,16.0,17.0,74,0.00,,,0.00,TxWx,2013-07-23 14:38:00,
2013-07-23 09:39:00,86.0,76.0,29.96,South,180,15.0,15.0,74,0.00,,,0.00,TxWx,2013-07-23 14:39:00,
2013-07-23 09:43:00,86.0,76.0,29.96,SW,225,8.0,10.0,73,0.00,,,0.00,TxWx,2013-07-23 14:43:00,
2013-07-23 09:44:00,86.0,76.0,29.97,West,270,11.0,14.0,73,0.00,,,0.00,TxWx,2013-07-23 14:44:00,
2013-07-23 09:45:00,86.0,76.0,29.96,SSW,202,11.0,13.0,73,0.00,,,0.00,TxWx,2013-07-23 14:45:00,
2013-07-23 09:46:00,86.0,76.0,29.97,SW,225,14.0,14.0,74,0.00,,,0.00,TxWx,2013-07-23 14:46:00,
2013-07-23 09:49:00,86.0,76.0,29.96,SSW,202,10.0,10.0,74,0.00,,,0.00,TxWx,2013-07-23 14:49:00,
2013-07-23 09:50:00,86.0,76.0,29.96,South,180,12.0,12.0,74,0.00,,,0.00,TxWx,2013-07-23 14:50:00,
2013-07-23 09:52:00,86.0,76.0,29.96,South,180,6.0,8.0,74,0.00,,,0.00,TxWx,2013-07-23 14:52:00,
2013-07-23 09:54:00,86.0,76.0,29.96,SSW,202,12.0,13.0,74,0.00,,,0.00,TxWx,2013-07-23 14:54:00,
2013-07-23 09:57:00,86.0,77.0,29.96,South,180,14.0,14.0,74,0.00,,,0.00,TxWx,2013-07-23 14:57:00,
2013-07-23 09:59:00,86.0,77.0,29.97,SSW,202,10.0,11.0,74,0.00,,,0.00,TxWx,2013-07-23 14:59:00,
2013-07-23 10:00:00,86.0,77.0,29.96,SSW,202,11.0,11.0,74,0.00,,,0.00,TxWx,2013-07-23 15:00:00,
2013-07-23 10:02:00,86.0,77.0,29.96,SSW,202,7.0,11.0,74,0.00,,,0.00,TxWx,2013-07-23 15:02:00,
2013-07-23 10:03:00,86.0,77.0,29.96,SW,225,6.0,6.0,74,0.00,,,0.00,TxWx,2013-07-23 15:03:00,
2013-07-23 10:05:00,86.0,77.0,29.97,SSW,202,14.0,16.0,74,0.00,,,0.00,TxWx,2013-07-23 15:05:00,
2013-07-23 10:07:00,86.0,77.0,29.96,South,180,14.0,16.0,75,0.00,,,0.00,TxWx,2013-07-23 15:07:00,
2013-07-23 10:08:00,86.0,77.0,29.96,SSE,157,5.0,6.0,75,0.00,,,0.00,TxWx,2013-07-23 15:08:00,
2013-07-23 10:10:00,86.0,77.0,29.96,SW,225,16.0,16.0,74,0.00,,,0.00,TxWx,2013-07-23 15:10:00,
2013-07-23 10:12:00,87.0,78.0,29.96,SSW,202,8.0,9.0,74,0.00,,,0.00,TxWx,2013-07-23 15:12:00,
2013-07-23 10:13:00,86.0,76.0,29.96,WSW,247,13.0,14.0,73,0.00,,,0.00,TxWx,2013-07-23 15:13:00,
2013-07-23 10:14:00,86.0,76.0,29.96,SSW,202,10.0,12.0,73,0.00,,,0.00,TxWx,2013-07-23 15:14:00,
2013-07-23 10:15:00,86.0,76.0,29.96,South,180,5.0,5.0,73,0.00,,,0.00,TxWx,2013-07-23 15:15:00,
2013-07-23 10:16:00,86.0,76.0,29.96,SSW,202,10.0,10.0,73,0.00,,,0.00,TxWx,2013-07-23 15:16:00,
2013-07-23 10:18:00,86.0,76.0,29.96,SW,225,5.0,5.0,74,0.00,,,0.00,TxWx,2013-07-23 15:18:00,
2013-07-23 10:19:00,86.0,76.0,29.96,SSW,202,9.0,11.0,74,0.00,,,0.00,TxWx,2013-07-23 15:19:00,
2013-07-23 10:20:00,86.0,76.0,29.96,SSW,202,16.0,16.0,74,0.00,,,0.00,TxWx,2013-07-23 15:20:00,
2013-07-23 10:21:00,86.0,76.0,29.96,SSW,202,13.0,14.0,74,0.00,,,0.00,TxWx,2013-07-23 15:21:00,
2013-07-23 10:24:00,86.0,77.0,29.96,South,180,8.0,8.0,74,0.00,,,0.00,TxWx,2013-07-23 15:24:00,
2013-07-23 10:25:00,86.0,77.0,29.96,SW,225,5.0,6.0,74,0.00,,,0.00,TxWx,2013-07-23 15:25:00,
2013-07-23 10:26:00,86.0,77.0,29.96,SSW,202,7.0,7.0,74,0.00,,,0.00,TxWx,2013-07-23 15:26:00,
2013-07-23 10:28:00,86.0,77.0,29.96,SSW,202,8.0,9.0,75,0.00,,,0.00,TxWx,2013-07-23 15:28:00,
2013-07-23 10:30:00,86.0,77.0,29.96,South,180,7.0,7.0,75,0.00,,,0.00,TxWx,2013-07-23 15:30:00,
2013-07-23 10:31:00,86.0,77.0,29.96,South,180,9.0,13.0,74,0.00,,,0.00,TxWx,2013-07-23 15:31:00,
2013-07-23 10:33:00,87.0,78.0,29.96,SSW,202,11.0,13.0,74,0.00,,,0.00,TxWx,2013-07-23 15:33:00,
2013-07-23 10:34:00,87.0,78.0,29.96,SSW,202,7.0,8.0,74,0.00,,,0.00,TxWx,2013-07-23 15:34:00,
2013-07-23 10:36:00,87.0,77.0,29.96,South,180,17.0,17.0,74,0.00,,,0.00,TxWx,2013-07-23 15:36:00,
2013-07-23 10:37:00,87.0,77.0,29.97,South,180,14.0,14.0,74,0.00,,,0.00,TxWx,2013-07-23 15:37:00,
2013-07-23 10:38:00,87.0,77.0,29.96,South,180,11.0,11.0,74,0.00,,,0.00,TxWx,2013-07-23 15:38:00,
2013-07-23 10:41:00,87.0,77.0,29.96,SSW,202,7.0,10.0,74,0.00,,,0.00,TxWx,2013-07-23 15:41:00,
2013-07-23 10:42:00,87.0,77.0,29.96,South,180,13.0,13.0,74,0.00,,,0.00,TxWx,2013-07-23 15:42:00,
2013-07-23 10:43:00,87.0,77.0,29.97,SSE,157,11.0,14.0,73,0.00,,,0.00,TxWx,2013-07-23 15:43:00,
2013-07-23 10:44:00,87.0,77.0,29.96,SE,135,6.0,6.0,74,0.00,,,0.00,TxWx,2013-07-23 15:44:00,
2013-07-23 10:47:00,87.0,77.0,29.96,SSW,202,9.0,11.0,74,0.00,,,0.00,TxWx,2013-07-23 15:47:00,
2013-07-23 10:48:00,87.0,77.0,29.96,South,180,5.0,5.0,73,0.00,,,0.00,TxWx,2013-07-23 15:48:00,
2013-07-23 10:49:00,87.0,77.0,29.97,SSW,202,10.0,12.0,73,0.00,,,0.00,TxWx,2013-07-23 15:49:00,
2013-07-23 10:52:00,87.0,77.0,29.97,SSE,157,13.0,14.0,72,0.00,,,0.00,TxWx,2013-07-23 15:52:00,
2013-07-23 10:55:00,87.0,77.0,29.97,South,180,10.0,10.0,73,0.00,,,0.00,TxWx,2013-07-23 15:55:00,
2013-07-23 10:56:00,87.0,77.0,29.97,South,180,14.0,14.0,73,0.00,,,0.00,TxWx,2013-07-23 15:56:00,
2013-07-23 10:58:00,87.0,77.0,29.97,South,180,13.0,13.0,73,0.00,,,0.00,TxWx,2013-07-23 15:58:00,
2013-07-23 11:00:00,87.0,77.0,29.96,SSE,157,9.0,11.0,73,0.00,,,0.00,TxWx,2013-07-23 16:00:00,
2013-07-23 11:02:00,87.0,77.0,29.97,South,180,8.0,8.0,73,0.00,,,0.00,TxWx,2013-07-23 16:02:00,
2013-07-23 11:06:00,88.0,78.0,29.97,SSW,202,7.0,8.0,73,0.00,,,0.00,TxWx,2013-07-23 16:06:00,
2013-07-23 11:07:00,88.0,78.0,29.97,SSE,157,11.0,11.0,73,0.00,,,0.00,TxWx,2013-07-23 16:07:00,
2013-07-23 11:08:00,88.0,78.0,29.97,SSW,202,13.0,13.0,73,0.00,,,0.00,TxWx,2013-07-23 16:08:00,
2013-07-23 11:09:00,88.0,78.0,29.97,SSW,202,13.0,14.0,72,0.00,,,0.00,TxWx,2013-07-23 16:09:00,
2013-07-23 11:12:00,88.0,78.0,29.97,South,180,13.0,14.0,72,0.00,,,0.00,TxWx,2013-07-23 16:12:00,
2013-07-23 11:13:00,88.0,78.0,29.97,SSE,157,13.0,13.0,72,0.00,,,0.00,TxWx,2013-07-23 16:13:00,
2013-07-23 11:15:00,88.0,78.0,29.97,SSW,202,10.0,10.0,72,0.00,,,0.00,TxWx,2013-07-23 16:15:00,
2013-07-23 11:17:00,88.0,78.0,29.97,SSW,202,14.0,14.0,72,0.00,,,0.00,TxWx,2013-07-23 16:17:00,
2013-07-23 11:20:00,88.0,78.0,29.97,SSE,157,16.0,18.0,72,0.00,,,0.00,TxWx,2013-07-23 16:20:00,
2013-07-23 11:22:00,88.0,78.0,29.97,SSW,202,10.0,10.0,73,0.00,,,0.00,TxWx,2013-07-23 16:22:00,
2013-07-23 11:23:00,88.0,78.0,29.97,SSW,202,9.0,11.0,73,0.00,,,0.00,TxWx,2013-07-23 16:23:00,
2013-07-23 11:24:00,88.0,78.0,29.97,SE,135,8.0,8.0,73,0.00,,,0.00,TxWx,2013-07-23 16:24:00,
2013-07-23 11:25:00,88.0,78.0,29.97,WSW,247,14.0,15.0,72,0.00,,,0.00,TxWx,2013-07-23 16:25:00,
2013-07-23 11:27:00,88.0,78.0,29.97,SSE,157,10.0,10.0,73,0.00,,,0.00,TxWx,2013-07-23 16:27:00,
2013-07-23 11:30:00,88.0,78.0,29.97,SSE,157,11.0,12.0,73,0.00,,,0.00,TxWx,2013-07-23 16:30:00,
2013-07-23 11:32:00,88.0,78.0,29.97,SSW,202,12.0,14.0,73,0.00,,,0.00,TxWx,2013-07-23 16:32:00,
2013-07-23 11:33:00,88.0,78.0,29.97,SW,225,15.0,15.0,73,0.00,,,0.00,TxWx,2013-07-23 16:33:00,
2013-07-23 11:34:00,88.0,78.0,29.97,SSW,202,13.0,13.0,73,0.00,,,0.00,TxWx,2013-07-23 16:34:00,
2013-07-23 11:35:00,88.0,78.0,29.97,SW,225,16.0,16.0,72,0.00,,,0.00,TxWx,2013-07-23 16:35:00,
2013-07-23 11:37:00,88.0,78.0,29.97,SSE,157,8.0,8.0,73,0.00,,,0.00,TxWx,2013-07-23 16:37:00,
2013-07-23 11:40:00,88.0,78.0,29.97,South,180,11.0,11.0,73,0.00,,,0.00,TxWx,2013-07-23 16:40:00,
2013-07-23 11:41:00,88.0,78.0,29.97,WSW,247,10.0,11.0,73,0.00,,,0.00,TxWx,2013-07-23 16:41:00,
2013-07-23 11:42:00,88.0,78.0,29.97,SW,225,25.0,25.0,73,0.00,,,0.00,TxWx,2013-07-23 16:42:00,
2013-07-23 11:43:00,88.0,78.0,29.97,SW,225,15.0,15.0,73,0.00,,,0.00,TxWx,2013-07-23 16:43:00,
2013-07-23 11:44:00,88.0,78.0,29.97,SSW,202,13.0,13.0,73,0.00,,,0.00,TxWx,2013-07-23 16:44:00,
2013-07-23 11:46:00,88.0,78.0,29.97,South,180,13.0,20.0,72,0.00,,,0.00,TxWx,2013-07-23 16:46:00,
2013-07-23 11:48:00,88.0,78.0,29.97,SSW,202,13.0,13.0,72,0.00,,,0.00,TxWx,2013-07-23 16:48:00,
2013-07-23 11:49:00,88.0,78.0,29.97,SSW,202,6.0,6.0,73,0.00,,,0.00,TxWx,2013-07-23 16:49:00,
2013-07-23 11:50:00,88.0,78.0,29.97,South,180,12.0,12.0,73,0.00,,,0.00,TxWx,2013-07-23 16:50:00,
2013-07-23 11:53:00,88.0,78.0,29.97,SSE,157,10.0,11.0,74,0.00,,,0.00,TxWx,2013-07-23 16:53:00,
2013-07-23 11:54:00,89.0,79.0,29.97,SW,225,10.0,13.0,73,0.00,,,0.00,TxWx,2013-07-23 16:54:00,
2013-07-23 11:55:00,89.0,79.0,29.97,SSW,202,13.0,13.0,73,0.00,,,0.00,TxWx,2013-07-23 16:55:00,
2013-07-23 11:56:00,89.0,79.0,29.97,SE,135,5.0,6.0,73,0.00,,,0.00,TxWx,2013-07-23 16:56:00,
2013-07-23 11:57:00,89.0,79.0,29.97,SSW,202,11.0,13.0,73,0.00,,,0.00,TxWx,2013-07-23 16:57:00,
2013-07-23 11:58:00,88.0,78.0,29.97,SW,225,10.0,12.0,72,0.00,,,0.00,TxWx,2013-07-23 16:58:00,
2013-07-23 12:01:00,88.0,78.0,29.97,SSW,202,16.0,18.0,72,0.00,,,0.00,TxWx,2013-07-23 17:01:00,
2013-07-23 12:02:00,88.0,78.0,29.97,South,180,12.0,12.0,72,0.00,,,0.00,TxWx,2013-07-23 17:02:00,
2013-07-23 12:04:00,88.0,78.0,29.97,SW,225,15.0,16.0,73,0.00,,,0.00,TxWx,2013-07-23 17:04:00,
2013-07-23 12:07:00,88.0,78.0,29.97,South,180,8.0,10.0,73,0.00,,,0.00,TxWx,2013-07-23 17:07:00,
2013-07-23 12:08:00,88.0,78.0,29.97,South,180,11.0,14.0,74,0.00,,,0.00,TxWx,2013-07-23 17:08:00,
2013-07-23 12:11:00,89.0,79.0,29.97,SSW,202,10.0,10.0,74,0.00,,,0.00,TxWx,2013-07-23 17:11:00,
2013-07-23 12:13:00,88.0,78.0,29.97,SSE,157,13.0,14.0,73,0.00,,,0.00,TxWx,2013-07-23 17:13:00,
2013-07-23 12:15:00,89.0,79.0,29.97,SSW,202,9.0,9.0,73,0.00,,,0.00,TxWx,2013-07-23 17:15:00,
2013-07-23 12:17:00,88.0,78.0,29.97,South,180,13.0,13.0,72,0.00,,,0.00,TxWx,2013-07-23 17:17:00,
2013-07-23 12:19:00,88.0,78.0,29.97,SE,135,14.0,14.0,72,0.00,,,0.00,TxWx,2013-07-23 17:19:00,
2013-07-23 12:20:00,88.0,78.0,29.97,SE,135,20.0,20.0,72,0.00,,,0.00,TxWx,2013-07-23 17:20:00,
2013-07-23 12:21:00,88.0,78.0,29.96,SSE,157,13.0,14.0,73,0.00,,,0.00,TxWx,2013-07-23 17:21:00,
2013-07-23 12:23:00,88.0,78.0,29.96,South,180,11.0,12.0,73,0.00,,,0.00,TxWx,2013-07-23 17:23:00,
2013-07-23 12:24:00,88.0,78.0,29.97,SSE,157,16.0,16.0,73,0.00,,,0.00,TxWx,2013-07-23 17:24:00,
2013-07-23 12:27:00,89.0,79.0,29.97,SSW,202,14.0,14.0,73,0.00,,,0.00,TxWx,2013-07-23 17:27:00,
2013-07-23 12:29:00,89.0,79.0,29.96,SSE,157,14.0,14.0,73,0.00,,,0.00,TxWx,2013-07-23 17:29:00,
2013-07-23 12:30:00,89.0,79.0,29.97,SSE,157,13.0,14.0,73,0.00,,,0.00,TxWx,2013-07-23 17:30:00,
2013-07-23 12:31:00,88.0,78.0,29.97,South,180,16.0,16.0,73,0.00,,,0.00,TxWx,2013-07-23 17:31:00,
2013-07-23 12:32:00,88.0,78.0,29.97,SSW,202,8.0,12.0,72,0.00,,,0.00,TxWx,2013-07-23 17:32:00,
2013-07-23 12:35:00,88.0,78.0,29.97,South,180,16.0,17.0,73,0.00,,,0.00,TxWx,2013-07-23 17:35:00,
2013-07-23 12:36:00,88.0,78.0,29.97,SSE,157,9.0,10.0,73,0.00,,,0.00,TxWx,2013-07-23 17:36:00,
2013-07-23 12:37:00,88.0,78.0,29.97,SSW,202,15.0,17.0,73,0.00,,,0.00,TxWx,2013-07-23 17:37:00,
2013-07-23 12:41:00,89.0,79.0,29.96,South,180,18.0,19.0,73,0.00,,,0.00,TxWx,2013-07-23 17:41:00,
2013-07-23 12:43:00,89.0,79.0,29.96,South,180,12.0,12.0,73,0.00,,,0.00,TxWx,2013-07-23 17:43:00,
2013-07-23 12:46:00,89.0,79.0,29.96,SSE,157,10.0,10.0,73,0.00,,,0.00,TxWx,2013-07-23 17:46:00,
2013-07-23 12:47:00,89.0,79.0,29.97,SSE,157,13.0,13.0,73,0.00,,,0.00,TxWx,2013-07-23 17:47:00,
2013-07-23 12:49:00,89.0,79.0,29.96,SSE,157,14.0,16.0,72,0.00,,,0.00,TxWx,2013-07-23 17:49:00,
2013-07-23 12:52:00,89.0,79.0,29.96,SSW,202,10.0,15.0,73,0.00,,,0.00,TxWx,2013-07-23 17:52:00,
2013-07-23 12:53:00,88.0,78.0,29.96,SE,135,13.0,14.0,73,0.00,,,0.00,TxWx,2013-07-23 17:53:00,
2013-07-23 12:54:00,88.0,78.0,29.96,SE,135,10.0,11.0,73,0.00,,,0.00,TxWx,2013-07-23 17:54:00,
2013-07-23 12:55:00,88.0,78.0,29.96,SSW,202,12.0,14.0,73,0.00,,,0.00,TxWx,2013-07-23 17:55:00,
2013-07-23 13:00:00,88.0,78.0,29.96,South,180,13.0,13.0,73,0.00,,,0.00,TxWx,2013-07-23 18:00:00,
2013-07-23 13:01:00,88.0,78.0,29.96,SE,135,9.0,11.0,73,0.00,,,0.00,TxWx,2013-07-23 18:01:00,
2013-07-23 13:03:00,89.0,79.0,29.96,South,180,10.0,12.0,74,0.00,,,0.00,TxWx,2013-07-23 18:03:00,
2013-07-23 13:05:00,89.0,79.0,29.96,SSW,202,10.0,11.0,73,0.00,,,0.00,TxWx,2013-07-23 18:05:00,
2013-07-23 13:08:00,88.0,78.0,29.96,SSW,202,14.0,14.0,72,0.00,,,0.00,TxWx,2013-07-23 18:08:00,
2013-07-23 13:09:00,88.0,78.0,29.96,South,180,11.0,11.0,72,0.00,,,0.00,TxWx,2013-07-23 18:09:00,
2013-07-23 13:10:00,88.0,78.0,29.96,SE,135,9.0,10.0,72,0.00,,,0.00,TxWx,2013-07-23 18:10:00,
2013-07-23 13:11:00,88.0,78.0,29.96,South,180,11.0,14.0,72,0.00,,,0.00,TxWx,2013-07-23 18:11:00,
2013-07-23 13:15:00,89.0,79.0,29.96,SSE,157,6.0,7.0,73,0.00,,,0.00,TxWx,2013-07-23 18:15:00,
2013-07-23 13:16:00,89.0,79.0,29.95,ESE,112,13.0,13.0,73,0.00,,,0.00,TxWx,2013-07-23 18:16:00,
2013-07-23 13:17:00,88.0,78.0,29.96,SE,135,13.0,13.0,73,0.00,,,0.00,TxWx,2013-07-23 18:17:00,
2013-07-23 13:19:00,89.0,79.0,29.96,South,180,16.0,17.0,73,0.00,,,0.00,TxWx,2013-07-23 18:19:00,
2013-07-23 13:20:00,89.0,79.0,29.96,SSW,202,10.0,10.0,73,0.00,,,0.00,TxWx,2013-07-23 18:20:00,
2013-07-23 13:22:00,89.0,79.0,29.96,South,180,15.0,18.0,72,0.00,,,0.00,TxWx,2013-07-23 18:22:00,
2013-07-23 13:24:00,89.0,79.0,29.96,SE,135,8.0,11.0,72,0.00,,,0.00,TxWx,2013-07-23 18:24:00,
2013-07-23 13:25:00,88.0,78.0,29.95,SSE,157,19.0,19.0,72,0.00,,,0.00,TxWx,2013-07-23 18:25:00,
2013-07-23 13:26:00,89.0,79.0,29.95,SSE,157,10.0,12.0,72,0.00,,,0.00,TxWx,2013-07-23 18:26:00,
2013-07-23 13:28:00,89.0,79.0,29.95,South,180,11.0,14.0,72,0.00,,,0.00,TxWx,2013-07-23 18:28:00,
2013-07-23 13:31:00,89.0,79.0,29.96,SSW,202,3.0,5.0,73,0.00,,,0.00,TxWx,2013-07-23 18:31:00,
2013-07-23 13:32:00,89.0,79.0,29.96,SSE,157,10.0,13.0,72,0.00,,,0.00,TxWx,2013-07-23 18:32:00,
2013-07-23 13:33:00,89.0,79.0,29.96,South,180,10.0,11.0,72,0.00,,,0.00,TxWx,2013-07-23 18:33:00,
2013-07-23 13:34:00,89.0,79.0,29.96,South,180,13.0,16.0,72,0.00,,,0.00,TxWx,2013-07-23 18:34:00,
2013-07-23 13:36:00,89.0,79.0,29.96,SW,225,14.0,15.0,72,0.00,,,0.00,TxWx,2013-07-23 18:36:00,
2013-07-23 13:37:00,89.0,79.0,29.96,SSE,157,13.0,14.0,72,0.00,,,0.00,TxWx,2013-07-23 18:37:00,
2013-07-23 13:39:00,89.0,79.0,29.96,South,180,12.0,12.0,73,0.00,,,0.00,TxWx,2013-07-23 18:39:00,
2013-07-23 13:40:00,89.0,79.0,29.96,ESE,112,11.0,13.0,72,0.00,,,0.00,TxWx,2013-07-23 18:40:00,
2013-07-23 13:42:00,89.0,79.0,29.95,SSW,202,8.0,8.0,73,0.00,,,0.00,TxWx,2013-07-23 18:42:00,
2013-07-23 13:43:00,89.0,79.0,29.95,SE,135,11.0,11.0,73,0.00,,,0.00,TxWx,2013-07-23 18:43:00,
2013-07-23 13:44:00,89.0,79.0,29.95,South,180,11.0,11.0,73,0.00,,,0.00,TxWx,2013-07-23 18:44:00,
2013-07-23 13:45:00,89.0,79.0,29.95,SSE,157,10.0,13.0,72,0.00,,,0.00,TxWx,2013-07-23 18:45:00,
2013-07-23 13:48:00,89.0,79.0,29.95,SSW,202,8.0,10.0,72,0.00,,,0.00,TxWx,2013-07-23 18:48:00,
2013-07-23 13:49:00,89.0,79.0,29.95,South,180,15.0,15.0,72,0.00,,,0.00,TxWx,2013-07-23 18:49:00,
2013-07-23 13:51:00,89.0,79.0,29.95,SSW,202,14.0,14.0,72,0.00,,,0.00,TxWx,2013-07-23 18:51:00,
2013-07-23 13:53:00,89.0,79.0,29.95,SSE,157,11.0,11.0,72,0.00,,,0.00,TxWx,2013-07-23 18:53:00,
2013-07-23 13:56:00,89.0,79.0,29.95,SSE,157,13.0,13.0,72,0.00,,,0.00,TxWx,2013-07-23 18:56:00,
2013-07-23 13:57:00,89.0,79.0,29.95,SSW,202,17.0,18.0,72,0.00,,,0.00,TxWx,2013-07-23 18:57:00,
2013-07-23 13:59:00,89.0,79.0,29.95,SSW,202,11.0,13.0,72,0.00,,,0.00,TxWx,2013-07-23 18:59:00,
2013-07-23 14:02:00,89.0,79.0,29.94,SSW,202,6.0,6.0,73,0.00,,,0.00,TxWx,2013-07-23 19:02:00,
2013-07-23 14:03:00,89.0,79.0,29.94,SSW,202,10.0,10.0,72,0.00,,,0.00,TxWx,2013-07-23 19:03:00,
2013-07-23 14:05:00,89.0,78.0,29.94,SSW,202,13.0,16.0,71,0.00,,,0.00,TxWx,2013-07-23 19:05:00,
2013-07-23 14:07:00,89.0,79.0,29.94,South,180,11.0,11.0,72,0.00,,,0.00,TxWx,2013-07-23 19:07:00,
2013-07-23 14:08:00,89.0,79.0,29.94,South,180,14.0,14.0,72,0.00,,,0.00,TxWx,2013-07-23 19:08:00,
2013-07-23 14:11:00,89.0,79.0,29.94,SSE,157,11.0,13.0,72,0.00,,,0.00,TxWx,2013-07-23 19:11:00,
2013-07-23 14:15:00,88.0,78.0,29.94,South,180,17.0,17.0,72,0.00,,,0.00,TxWx,2013-07-23 19:15:00,
2013-07-23 14:16:00,89.0,79.0,29.94,SW,225,10.0,11.0,73,0.00,,,0.00,TxWx,2013-07-23 19:16:00,
2013-07-23 14:17:00,89.0,79.0,29.94,SSE,157,13.0,13.0,73,0.00,,,0.00,TxWx,2013-07-23 19:17:00,
2013-07-23 14:18:00,89.0,79.0,29.94,SSE,157,11.0,15.0,72,0.00,,,0.00,TxWx,2013-07-23 19:18:00,
2013-07-23 14:20:00,89.0,79.0,29.94,SSE,157,9.0,10.0,73,0.00,,,0.00,TxWx,2013-07-23 19:20:00,
2013-07-23 14:21:00,89.0,79.0,29.94,SSE,157,11.0,13.0,72,0.00,,,0.00,TxWx,2013-07-23 19:21:00,
2013-07-23 14:23:00,89.0,79.0,29.94,South,180,16.0,16.0,72,0.00,,,0.00,TxWx,2013-07-23 19:23:00,
2013-07-23 14:25:00,89.0,79.0,29.94,South,180,18.0,18.0,72,0.00,,,0.00,TxWx,2013-07-23 19:25:00,
2013-07-23 14:26:00,88.0,77.0,29.94,SSW,202,19.0,24.0,71,0.00,,,0.00,TxWx,2013-07-23 19:26:00,
2013-07-23 14:27:00,89.0,79.0,29.94,South,180,15.0,17.0,72,0.00,,,0.00,TxWx,2013-07-23 19:27:00,
2013-07-23 14:30:00,89.0,79.0,29.94,SSE,157,11.0,14.0,72,0.00,,,0.00,TxWx,2013-07-23 19:30:00,
2013-07-23 14:33:00,89.0,79.0,29.94,SSE,157,18.0,20.0,73,0.00,,,0.00,TxWx,2013-07-23 19:33:00,
2013-07-23 14:34:00,89.0,79.0,29.94,SSE,157,13.0,16.0,73,0.00,,,0.00,TxWx,2013-07-23 19:34:00,
2013-07-23 14:38:00,89.0,79.0,29.94,SSE,157,12.0,12.0,73,0.00,,,0.00,TxWx,2013-07-23 19:38:00,
2013-07-23 14:41:00,89.0,79.0,29.94,SE,135,10.0,11.0,72,0.00,,,0.00,TxWx,2013-07-23 19:41:00,
2013-07-23 14:42:00,89.0,79.0,29.94,SE,135,15.0,15.0,72,0.00,,,0.00,TxWx,2013-07-23 19:42:00,
2013-07-23 14:43:00,89.0,79.0,29.94,SSW,202,13.0,14.0,72,0.00,,,0.00,TxWx,2013-07-23 19:43:00,
2013-07-23 14:44:00,89.0,79.0,29.94,South,180,19.0,21.0,72,0.00,,,0.00,TxWx,2013-07-23 19:44:00,
2013-07-23 14:47:00,88.0,78.0,29.94,SE,135,14.0,16.0,72,0.00,,,0.00,TxWx,2013-07-23 19:47:00,
2013-07-23 14:49:00,88.0,79.0,29.94,SSE,157,16.0,18.0,73,0.00,,,0.00,TxWx,2013-07-23 19:49:00,
2013-07-23 14:50:00,89.0,79.0,29.94,South,180,21.0,21.0,73,0.00,,,0.00,TxWx,2013-07-23 19:50:00,
2013-07-23 14:52:00,89.0,79.0,29.93,South,180,10.0,11.0,73,0.00,,,0.00,TxWx,2013-07-23 19:52:00,
2013-07-23 14:53:00,89.0,79.0,29.93,South,180,11.0,14.0,73,0.00,,,0.00,TxWx,2013-07-23 19:53:00,
2013-07-23 14:55:00,89.0,79.0,29.93,SSE,157,11.0,11.0,73,0.00,,,0.00,TxWx,2013-07-23 19:55:00,
2013-07-23 14:58:00,89.0,79.0,29.93,SSW,202,14.0,14.0,72,0.00,,,0.00,TxWx,2013-07-23 19:58:00,
2013-07-23 14:59:00,89.0,79.0,29.93,SSW,202,10.0,12.0,72,0.00,,,0.00,TxWx,2013-07-23 19:59:00,
2013-07-23 15:00:00,90.0,80.0,29.93,East,90,11.0,11.0,73,0.00,,,0.00,TxWx,2013-07-23 20:00:00,
2013-07-23 15:03:00,88.0,78.0,29.93,SSE,157,10.0,10.0,72,0.00,,,0.00,TxWx,2013-07-23 20:03:00,
2013-07-23 15:04:00,88.0,78.0,29.93,SSE,157,12.0,14.0,72,0.00,,,0.00,TxWx,2013-07-23 20:04:00,
2013-07-23 15:05:00,88.0,78.0,29.93,SE,135,10.0,11.0,73,0.00,,,0.00,TxWx,2013-07-23 20:05:00,
2013-07-23 15:07:00,89.0,79.0,29.93,SE,135,8.0,8.0,74,0.00,,,0.00,TxWx,2013-07-23 20:07:00,
2013-07-23 15:10:00,88.0,78.0,29.93,South,180,19.0,19.0,73,0.00,,,0.00,TxWx,2013-07-23 20:10:00,
2013-07-23 15:13:00,88.0,78.0,29.93,SE,135,13.0,14.0,73,0.00,,,0.00,TxWx,2013-07-23 20:13:00,
2013-07-23 15:16:00,89.0,79.0,29.93,South,180,11.0,13.0,73,0.00,,,0.00,TxWx,2013-07-23 20:16:00,
2013-07-23 15:19:00,89.0,79.0,29.92,South,180,14.0,14.0,72,0.00,,,0.00,TxWx,2013-07-23 20:19:00,
2013-07-23 15:21:00,89.0,79.0,29.93,SSE,157,13.0,16.0,72,0.00,,,0.00,TxWx,2013-07-23 20:21:00,
2013-07-23 15:22:00,89.0,79.0,29.93,SSE,157,10.0,11.0,72,0.00,,,0.00,TxWx,2013-07-23 20:22:00,
2013-07-23 15:27:00,89.0,79.0,29.92,South,180,16.0,18.0,73,0.00,,,0.00,TxWx,2013-07-23 20:27:00,
2013-07-23 15:28:00,89.0,79.0,29.92,ESE,112,13.0,17.0,73,0.00,,,0.00,TxWx,2013-07-23 20:28:00,
2013-07-23 15:29:00,89.0,79.0,29.92,SSE,157,14.0,14.0,73,0.00,,,0.00,TxWx,2013-07-23 20:29:00,
2013-07-23 15:33:00,89.0,79.0,29.93,SSE,157,18.0,18.0,74,0.00,,,0.00,TxWx,2013-07-23 20:33:00,
2013-07-23 15:34:00,89.0,79.0,29.92,SE,135,9.0,9.0,73,0.00,,,0.00,TxWx,2013-07-23 20:34:00,
2013-07-23 15:36:00,89.0,79.0,29.92,SE,135,16.0,16.0,73,0.00,,,0.00,TxWx,2013-07-23 20:36:00,
2013-07-23 15:40:00,88.0,78.0,29.92,South,180,19.0,19.0,73,0.00,,,0.00,TxWx,2013-07-23 20:40:00,
2013-07-23 15:41:00,89.0,79.0,29.92,SSE,157,13.0,19.0,74,0.00,,,0.00,TxWx,2013-07-23 20:41:00,
2013-07-23 15:42:00,88.0,78.0,29.92,SE,135,11.0,15.0,73,0.00,,,0.00,TxWx,2013-07-23 20:42:00,
2013-07-23 15:47:00,89.0,79.0,29.91,SE,135,8.0,8.0,74,0.00,,,0.00,TxWx,2013-07-23 20:47:00,
2013-07-23 15:48:00,89.0,79.0,29.91,SE,135,7.0,8.0,74,0.00,,,0.00,TxWx,2013-07-23 20:48:00,
2013-07-23 15:53:00,89.0,79.0,29.91,SSW,202,15.0,18.0,73,0.00,,,0.00,TxWx,2013-07-23 20:53:00,
2013-07-23 15:54:00,89.0,79.0,29.91,SSE,157,13.0,13.0,72,0.00,,,0.00,TxWx,2013-07-23 20:54:00,
2013-07-23 15:55:00,89.0,79.0,29.91,South,180,16.0,17.0,72,0.00,,,0.00,TxWx,2013-07-23 20:55:00,
2013-07-23 15:58:00,88.0,78.0,29.91,SSE,157,10.0,11.0,73,0.00,,,0.00,TxWx,2013-07-23 20:58:00,
2013-07-23 16:00:00,89.0,79.0,29.91,SE,135,12.0,12.0,74,0.00,,,0.00,TxWx,2013-07-23 21:00:00,
2013-07-23 16:01:00,89.0,79.0,29.91,SSE,157,18.0,19.0,73,0.00,,,0.00,TxWx,2013-07-23 21:01:00,
2013-07-23 16:04:00,89.0,79.0,29.91,South,180,14.0,14.0,73,0.00,,,0.00,TxWx,2013-07-23 21:04:00,
2013-07-23 16:05:00,88.0,78.0,29.90,South,180,11.0,12.0,73,0.00,,,0.00,TxWx,2013-07-23 21:05:00,
2013-07-23 16:09:00,89.0,79.0,29.90,SE,135,10.0,11.0,73,0.00,,,0.00,TxWx,2013-07-23 21:09:00,
2013-07-23 16:10:00,88.0,78.0,29.90,SSE,157,12.0,12.0,73,0.00,,,0.00,TxWx,2013-07-23 21:10:00,
2013-07-23 16:13:00,89.0,79.0,29.90,SSE,157,14.0,14.0,74,0.00,,,0.00,TxWx,2013-07-23 21:13:00,
2013-07-23 16:14:00,89.0,79.0,29.90,SSE,157,21.0,21.0,74,0.00,,,0.00,TxWx,2013-07-23 21:14:00,
2013-07-23 16:15:00,88.0,78.0,29.90,SE,135,12.0,14.0,74,0.00,,,0.00,TxWx,2013-07-23 21:15:00,
2013-07-23 16:16:00,88.0,78.0,29.90,SSE,157,13.0,13.0,74,0.00,,,0.00,TxWx,2013-07-23 21:16:00,
2013-07-23 16:18:00,88.0,78.0,29.90,SSE,157,16.0,17.0,74,0.00,,,0.00,TxWx,2013-07-23 21:18:00,
2013-07-23 16:20:00,88.0,79.0,29.90,SSW,202,14.0,16.0,74,0.00,,,0.00,TxWx,2013-07-23 21:20:00,
2013-07-23 16:21:00,88.0,79.0,29.90,SSE,157,11.0,13.0,74,0.00,,,0.00,TxWx,2013-07-23 21:21:00,
2013-07-23 16:22:00,88.0,78.0,29.90,South,180,18.0,21.0,74,0.00,,,0.00,TxWx,2013-07-23 21:22:00,
2013-07-23 16:25:00,88.0,79.0,29.90,SE,135,14.0,17.0,74,0.00,,,0.00,TxWx,2013-07-23 21:25:00,
2013-07-23 16:26:00,88.0,79.0,29.90,SSE,157,13.0,13.0,74,0.00,,,0.00,TxWx,2013-07-23 21:26:00,
2013-07-23 16:27:00,88.0,79.0,29.90,SE,135,10.0,13.0,74,0.00,,,0.00,TxWx,2013-07-23 21:27:00,
2013-07-23 16:28:00,88.0,79.0,29.90,South,180,15.0,15.0,74,0.00,,,0.00,TxWx,2013-07-23 21:28:00,
2013-07-23 16:31:00,88.0,79.0,29.90,South,180,16.0,16.0,75,0.00,,,0.00,TxWx,2013-07-23 21:31:00,
2013-07-23 16:32:00,88.0,79.0,29.90,SSE,157,8.0,8.0,75,0.00,,,0.00,TxWx,2013-07-23 21:32:00,
2013-07-23 16:33:00,88.0,79.0,29.90,South,180,11.0,11.0,74,0.00,,,0.00,TxWx,2013-07-23 21:33:00,
2013-07-23 16:35:00,88.0,79.0,29.90,South,180,11.0,11.0,75,0.00,,,0.00,TxWx,2013-07-23 21:35:00,
2013-07-23 16:38:00,89.0,80.0,29.90,SE,135,13.0,13.0,75,0.00,,,0.00,TxWx,2013-07-23 21:38:00,
2013-07-23 16:41:00,89.0,80.0,29.90,SSE,157,19.0,19.0,74,0.00,,,0.00,TxWx,2013-07-23 21:41:00,
2013-07-23 16:42:00,88.0,78.0,29.90,South,180,16.0,16.0,74,0.00,,,0.00,TxWx,2013-07-23 21:42:00,
2013-07-23 16:44:00,88.0,79.0,29.90,SSW,202,9.0,12.0,74,0.00,,,0.00,TxWx,2013-07-23 21:44:00,
2013-07-23 16:47:00,88.0,79.0,29.90,South,180,16.0,16.0,74,0.00,,,0.00,TxWx,2013-07-23 21:47:00,
2013-07-23 16:48:00,88.0,79.0,29.90,SE,135,17.0,17.0,74,0.00,,,0.00,TxWx,2013-07-23 21:48:00,
2013-07-23 16:49:00,88.0,79.0,29.90,South,180,10.0,10.0,75,0.00,,,0.00,TxWx,2013-07-23 21:49:00,
2013-07-23 16:53:00,88.0,79.0,29.90,South,180,18.0,18.0,75,0.00,,,0.00,TxWx,2013-07-23 21:53:00,
2013-07-23 16:54:00,88.0,79.0,29.90,SSE,157,11.0,11.0,75,0.00,,,0.00,TxWx,2013-07-23 21:54:00,
2013-07-23 16:55:00,88.0,79.0,29.90,South,180,8.0,8.0,75,0.00,,,0.00,TxWx,2013-07-23 21:55:00,
2013-07-23 16:56:00,88.0,79.0,29.90,South,180,18.0,18.0,75,0.00,,,0.00,TxWx,2013-07-23 21:56:00,
2013-07-23 16:58:00,88.0,79.0,29.90,SSE,157,13.0,13.0,75,0.00,,,0.00,TxWx,2013-07-23 21:58:00,
2013-07-23 17:01:00,89.0,80.0,29.90,South,180,12.0,13.0,75,0.00,,,0.00,TxWx,2013-07-23 22:01:00,
2013-07-23 17:02:00,88.0,79.0,29.90,SE,135,11.0,11.0,75,0.00,,,0.00,TxWx,2013-07-23 22:02:00,
2013-07-23 17:05:00,88.0,79.0,29.90,SSW,202,15.0,18.0,74,0.00,,,0.00,TxWx,2013-07-23 22:05:00,
2013-07-23 17:06:00,88.0,79.0,29.90,SSE,157,12.0,12.0,75,0.00,,,0.00,TxWx,2013-07-23 22:06:00,
2013-07-23 17:08:00,88.0,79.0,29.89,SE,135,13.0,14.0,75,0.00,,,0.00,TxWx,2013-07-23 22:08:00,
2013-07-23 17:11:00,88.0,79.0,29.90,SE,135,19.0,19.0,75,0.00,,,0.00,TxWx,2013-07-23 22:11:00,
2013-07-23 17:14:00,88.0,79.0,29.89,SE,135,13.0,15.0,75,0.00,,,0.00,TxWx,2013-07-23 22:14:00,
2013-07-23 17:17:00,88.0,79.0,29.90,SSE,157,16.0,16.0,76,0.00,,,0.00,TxWx,2013-07-23 22:17:00,
2013-07-23 17:18:00,88.0,79.0,29.89,South,180,11.0,11.0,76,0.00,,,0.00,TxWx,2013-07-23 22:18:00,
2013-07-23 17:19:00,87.0,78.0,29.89,SE,135,11.0,11.0,75,0.00,,,0.00,TxWx,2013-07-23 22:19:00,
2013-07-23 17:22:00,87.0,78.0,29.89,South,180,18.0,18.0,76,0.00,,,0.00,TxWx,2013-07-23 22:22:00,
2013-07-23 17:23:00,87.0,78.0,29.89,South,180,13.0,14.0,76,0.00,,,0.00,TxWx,2013-07-23 22:23:00,
2013-07-23 17:24:00,87.0,78.0,29.90,SSE,157,17.0,18.0,76,0.00,,,0.00,TxWx,2013-07-23 22:24:00,
2013-07-23 17:27:00,88.0,79.0,29.89,South,180,17.0,18.0,76,0.00,,,0.00,TxWx,2013-07-23 22:27:00,
2013-07-23 17:29:00,88.0,79.0,29.89,WSW,247,7.0,7.0,76,0.00,,,0.00,TxWx,2013-07-23 22:29:00,
2013-07-23 17:32:00,88.0,79.0,29.89,SSW,202,13.0,13.0,75,0.00,,,0.00,TxWx,2013-07-23 22:32:00,
2013-07-23 17:35:00,88.0,79.0,29.89,SSE,157,16.0,16.0,75,0.00,,,0.00,TxWx,2013-07-23 22:35:00,
2013-07-23 17:36:00,88.0,79.0,29.89,SSE,157,8.0,9.0,75,0.00,,,0.00,TxWx,2013-07-23 22:36:00,
2013-07-23 17:37:00,88.0,79.0,29.89,South,180,13.0,14.0,75,0.00,,,0.00,TxWx,2013-07-23 22:37:00,
2013-07-23 17:42:00,87.0,78.0,29.89,South,180,12.0,13.0,75,0.00,,,0.00,TxWx,2013-07-23 22:42:00,
2013-07-23 17:43:00,87.0,78.0,29.89,SSE,157,21.0,21.0,75,0.00,,,0.00,TxWx,2013-07-23 22:43:00,
2013-07-23 17:44:00,88.0,79.0,29.89,SW,225,8.0,8.0,75,0.00,,,0.00,TxWx,2013-07-23 22:44:00,
2013-07-23 17:48:00,87.0,78.0,29.88,South,180,17.0,18.0,75,0.00,,,0.00,TxWx,2013-07-23 22:48:00,
2013-07-23 17:49:00,87.0,78.0,29.88,SE,135,17.0,20.0,75,0.00,,,0.00,TxWx,2013-07-23 22:49:00,
2013-07-23 17:50:00,87.0,78.0,29.88,SSE,157,15.0,17.0,75,0.00,,,0.00,TxWx,2013-07-23 22:50:00,
2013-07-23 17:52:00,87.0,78.0,29.88,SE,135,14.0,14.0,75,0.00,,,0.00,TxWx,2013-07-23 22:52:00,
2013-07-23 17:54:00,87.0,78.0,29.88,SSE,157,14.0,14.0,75,0.00,,,0.00,TxWx,2013-07-23 22:54:00,
2013-07-23 17:55:00,87.0,78.0,29.89,SSE,157,13.0,15.0,75,0.00,,,0.00,TxWx,2013-07-23 22:55:00,
2013-07-23 17:57:00,87.0,78.0,29.88,South,180,16.0,18.0,75,0.00,,,0.00,TxWx,2013-07-23 22:57:00,
2013-07-23 17:58:00,87.0,78.0,29.88,SSW,202,10.0,10.0,75,0.00,,,0.00,TxWx,2013-07-23 22:58:00,
2013-07-23 18:01:00,87.0,78.0,29.88,South,180,19.0,19.0,76,0.00,,,0.00,TxWx,2013-07-23 23:01:00,
2013-07-23 18:02:00,87.0,78.0,29.88,SE,135,13.0,13.0,76,0.00,,,0.00,TxWx,2013-07-23 23:02:00,
2013-07-23 18:03:00,87.0,78.0,29.88,South,180,16.0,16.0,76,0.00,,,0.00,TxWx,2013-07-23 23:03:00,
2013-07-23 18:04:00,87.0,78.0,29.88,South,180,15.0,17.0,76,0.00,,,0.00,TxWx,2013-07-23 23:04:00,
2013-07-23 18:06:00,87.0,78.0,29.88,SSE,157,13.0,13.0,76,0.00,,,0.00,TxWx,2013-07-23 23:06:00,
2013-07-23 18:07:00,87.0,78.0,29.88,SSE,157,13.0,13.0,76,0.00,,,0.00,TxWx,2013-07-23 23:07:00,
2013-07-23 18:10:00,87.0,78.0,29.88,SSW,202,16.0,16.0,76,0.00,,,0.00,TxWx,2013-07-23 23:10:00,
2013-07-23 18:12:00,87.0,78.0,29.88,SSW,202,10.0,12.0,76,0.00,,,0.00,TxWx,2013-07-23 23:12:00,
2013-07-23 18:14:00,87.0,78.0,29.88,SSW,202,21.0,21.0,76,0.00,,,0.00,TxWx,2013-07-23 23:14:00,
2013-07-23 18:15:00,87.0,79.0,29.88,SSE,157,13.0,13.0,77,0.00,,,0.00,TxWx,2013-07-23 23:15:00,
2013-07-23 18:17:00,87.0,79.0,29.88,SSE,157,8.0,8.0,77,0.00,,,0.00,TxWx,2013-07-23 23:17:00,
2013-07-23 18:19:00,87.0,78.0,29.87,South,180,12.0,14.0,76,0.00,,,0.00,TxWx,2013-07-23 23:19:00,
2013-07-23 18:20:00,87.0,79.0,29.87,SSW,202,19.0,19.0,77,0.00,,,0.00,TxWx,2013-07-23 23:20:00,
2013-07-23 18:22:00,87.0,79.0,29.87,SE,135,14.0,14.0,77,0.00,,,0.00,TxWx,2013-07-23 23:22:00,
2013-07-23 18:24:00,87.0,79.0,29.87,SSE,157,10.0,12.0,77,0.00,,,0.00,TxWx,2013-07-23 23:24:00,
2013-07-23 18:25:00,87.0,79.0,29.87,SSE,157,10.0,12.0,77,0.00,,,0.00,TxWx,2013-07-23 23:25:00,
2013-07-23 18:27:00,86.0,78.0,29.87,SSE,157,16.0,16.0,78,0.00,,,0.00,TxWx,2013-07-23 23:27:00,
2013-07-23 18:29:00,86.0,78.0,29.87,SSE,157,13.0,14.0,78,0.00,,,0.00,TxWx,2013-07-23 23:29:00,
2013-07-23 18:30:00,87.0,79.0,29.87,South,180,10.0,10.0,78,0.00,,,0.00,TxWx,2013-07-23 23:30:00,
2013-07-23 18:33:00,86.0,78.0,29.87,SSE,157,17.0,17.0,78,0.00,,,0.00,TxWx,2013-07-23 23:33:00,
2013-07-23 18:34:00,86.0,78.0,29.87,SE,135,16.0,21.0,78,0.00,,,0.00,TxWx,2013-07-23 23:34:00,
2013-07-23 18:36:00,86.0,78.0,29.87,SSE,157,12.0,14.0,78,0.00,,,0.00,TxWx,2013-07-23 23:36:00,
2013-07-23 18:40:00,86.0,78.0,29.87,SSE,157,15.0,22.0,78,0.00,,,0.00,TxWx,2013-07-23 23:40:00,
2013-07-23 18:41:00,86.0,78.0,29.87,WSW,247,10.0,13.0,78,0.00,,,0.00,TxWx,2013-07-23 23:41:00,
2013-07-23 18:42:00,86.0,78.0,29.87,SSE,157,18.0,18.0,78,0.00,,,0.00,TxWx,2013-07-23 23:42:00,
2013-07-23 18:43:00,86.0,78.0,29.87,SE,135,18.0,21.0,78,0.00,,,0.00,TxWx,2013-07-23 23:43:00,
2013-07-23 18:46:00,86.0,78.0,29.87,SE,135,13.0,14.0,78,0.00,,,0.00,TxWx,2013-07-23 23:46:00,
2013-07-23 18:48:00,86.0,78.0,29.87,SSE,157,10.0,10.0,78,0.00,,,0.00,TxWx,2013-07-23 23:48:00,
2013-07-23 18:52:00,86.0,78.0,29.87,SSW,202,16.0,16.0,78,0.00,,,0.00,TxWx,2013-07-23 23:52:00,
2013-07-23 18:53:00,86.0,78.0,29.87,South,180,12.0,12.0,78,0.00,,,0.00,TxWx,2013-07-23 23:53:00,
2013-07-23 18:55:00,86.0,78.0,29.87,SSE,157,8.0,8.0,78,0.00,,,0.00,TxWx,2013-07-23 23:55:00,
2013-07-23 18:57:00,86.0,78.0,29.87,SSW,202,10.0,13.0,78,0.00,,,0.00,TxWx,2013-07-23 23:57:00,
2013-07-23 18:59:00,86.0,78.0,29.87,SE,135,11.0,11.0,78,0.00,,,0.00,TxWx,2013-07-23 23:59:00,
2013-07-23 19:01:00,86.0,78.0,29.88,SE,135,11.0,11.0,78,0.00,,,0.00,TxWx,2013-07-24 00:01:00,
2013-07-23 19:03:00,86.0,78.0,29.87,SSE,157,11.0,11.0,78,0.00,,,0.00,TxWx,2013-07-24 00:03:00,
2013-07-23 19:06:00,86.0,78.0,29.87,SSE,157,5.0,5.0,78,0.00,,,0.00,TxWx,2013-07-24 00:06:00,
2013-07-23 19:07:00,86.0,78.0,29.87,SSE,157,10.0,10.0,78,0.00,,,0.00,TxWx,2013-07-24 00:07:00,
2013-07-23 19:08:00,86.0,78.0,29.87,SE,135,5.0,5.0,78,0.00,,,0.00,TxWx,2013-07-24 00:08:00,
2013-07-23 19:12:00,86.0,78.0,29.88,ESE,112,6.0,7.0,78,0.00,,,0.00,TxWx,2013-07-24 00:12:00,
2013-07-23 19:13:00,86.0,78.0,29.88,SSE,157,4.0,4.0,78,0.00,,,0.00,TxWx,2013-07-24 00:13:00,
2013-07-23 19:14:00,86.0,78.0,29.87,SE,135,6.0,6.0,78,0.00,,,0.00,TxWx,2013-07-24 00:14:00,
2013-07-23 19:15:00,86.0,78.0,29.88,SE,135,12.0,12.0,78,0.00,,,0.00,TxWx,2013-07-24 00:15:00,
2013-07-23 19:18:00,86.0,78.0,29.88,SSW,202,10.0,12.0,78,0.00,,,0.00,TxWx,2013-07-24 00:18:00,
2013-07-23 19:19:00,86.0,78.0,29.88,SSE,157,11.0,13.0,78,0.00,,,0.00,TxWx,2013-07-24 00:19:00,
2013-07-23 19:23:00,86.0,78.0,29.88,SSW,202,14.0,14.0,78,0.00,,,0.00,TxWx,2013-07-24 00:23:00,
2013-07-23 19:25:00,85.0,78.0,29.88,South,180,18.0,18.0,79,0.00,,,0.00,TxWx,2013-07-24 00:25:00,
2013-07-23 19:26:00,86.0,78.0,29.88,South,180,11.0,13.0,79,0.00,,,0.00,TxWx,2013-07-24 00:26:00,
2013-07-23 19:28:00,85.0,78.0,29.88,SE,135,11.0,11.0,79,0.00,,,0.00,TxWx,2013-07-24 00:28:00,
2013-07-23 19:30:00,85.0,78.0,29.88,South,180,14.0,14.0,79,0.00,,,0.00,TxWx,2013-07-24 00:30:00,
2013-07-23 19:32:00,85.0,78.0,29.88,SSE,157,23.0,23.0,79,0.00,,,0.00,TxWx,2013-07-24 00:32:00,
2013-07-23 19:33:00,85.0,78.0,29.88,SSE,157,8.0,9.0,79,0.00,,,0.00,TxWx,2013-07-24 00:33:00,
2013-07-23 19:35:00,85.0,78.0,29.88,SSE,157,14.0,14.0,79,0.00,,,0.00,TxWx,2013-07-24 00:35:00,
2013-07-23 19:36:00,85.0,78.0,29.88,SW,225,5.0,5.0,79,0.00,,,0.00,TxWx,2013-07-24 00:36:00,
2013-07-23 19:38:00,85.0,78.0,29.88,SSE,157,12.0,14.0,79,0.00,,,0.00,TxWx,2013-07-24 00:38:00,
2013-07-23 19:40:00,85.0,78.0,29.88,South,180,8.0,8.0,80,0.00,,,0.00,TxWx,2013-07-24 00:40:00,
2013-07-23 19:41:00,85.0,78.0,29.88,SE,135,8.0,8.0,80,0.00,,,0.00,TxWx,2013-07-24 00:41:00,
2013-07-23 19:42:00,85.0,78.0,29.88,SE,135,10.0,11.0,80,0.00,,,0.00,TxWx,2013-07-24 00:42:00,
2013-07-23 19:45:00,85.0,78.0,29.88,South,180,10.0,10.0,80,0.00,,,0.00,TxWx,2013-07-24 00:45:00,
2013-07-23 19:46:00,85.0,78.0,29.88,SSW,202,13.0,13.0,80,0.00,,,0.00,TxWx,2013-07-24 00:46:00,
2013-07-23 19:47:00,85.0,78.0,29.88,SSE,157,13.0,13.0,80,0.00,,,0.00,TxWx,2013-07-24 00:47:00,
2013-07-23 19:49:00,85.0,78.0,29.88,SE,135,6.0,6.0,80,0.00,,,0.00,TxWx,2013-07-24 00:49:00,
2013-07-23 19:51:00,85.0,78.0,29.88,South,180,11.0,11.0,80,0.00,,,0.00,TxWx,2013-07-24 00:51:00,
2013-07-23 19:53:00,85.0,78.0,29.88,SSW,202,7.0,9.0,81,0.00,,,0.00,TxWx,2013-07-24 00:53:00,
2013-07-23 19:54:00,85.0,78.0,29.88,SSE,157,11.0,11.0,81,0.00,,,0.00,TxWx,2013-07-24 00:54:00,
2013-07-23 19:56:00,85.0,78.0,29.88,SSW,202,6.0,6.0,81,0.00,,,0.00,TxWx,2013-07-24 00:56:00,
2013-07-23 19:59:00,85.0,78.0,29.88,South,180,9.0,10.0,81,0.00,,,0.00,TxWx,2013-07-24 00:59:00,
2013-07-23 20:00:00,85.0,78.0,29.88,SSE,157,13.0,15.0,81,0.00,,,0.00,TxWx,2013-07-24 01:00:00,
2013-07-23 20:03:00,85.0,78.0,29.88,South,180,14.0,16.0,81,0.00,,,0.00,TxWx,2013-07-24 01:03:00,
2013-07-23 20:04:00,85.0,78.0,29.88,South,180,10.0,13.0,81,0.00,,,0.00,TxWx,2013-07-24 01:04:00,
2013-07-23 20:06:00,85.0,78.0,29.88,South,180,11.0,13.0,81,0.00,,,0.00,TxWx,2013-07-24 01:06:00,
2013-07-23 20:07:00,84.0,77.0,29.88,SE,135,6.0,8.0,81,0.00,,,0.00,TxWx,2013-07-24 01:07:00,
2013-07-23 20:09:00,85.0,78.0,29.88,South,180,6.0,6.0,81,0.00,,,0.00,TxWx,2013-07-24 01:09:00,
2013-07-23 20:12:00,84.0,77.0,29.89,SSW,202,11.0,14.0,81,0.00,,,0.00,TxWx,2013-07-24 01:12:00,
2013-07-23 20:13:00,84.0,77.0,29.88,SSE,157,18.0,18.0,81,0.00,,,0.00,TxWx,2013-07-24 01:13:00,
2013-07-23 20:16:00,84.0,77.0,29.89,SSE,157,7.0,12.0,81,0.00,,,0.00,TxWx,2013-07-24 01:16:00,
2013-07-23 20:17:00,84.0,77.0,29.88,SSW,202,11.0,14.0,81,0.00,,,0.00,TxWx,2013-07-24 01:17:00,
2013-07-23 20:18:00,84.0,77.0,29.89,SE,135,13.0,14.0,81,0.00,,,0.00,TxWx,2013-07-24 01:18:00,
2013-07-23 20:21:00,84.0,77.0,29.88,SSE,157,11.0,12.0,81,0.00,,,0.00,TxWx,2013-07-24 01:21:00,
2013-07-23 20:24:00,84.0,78.0,29.89,SE,135,14.0,14.0,81,0.00,,,0.00,TxWx,2013-07-24 01:24:00,
2013-07-23 20:26:00,84.0,78.0,29.89,WSW,247,5.0,6.0,81,0.00,,,0.00,TxWx,2013-07-24 01:26:00,
2013-07-23 20:28:00,84.0,78.0,29.89,SSE,157,13.0,13.0,81,0.00,,,0.00,TxWx,2013-07-24 01:28:00,
2013-07-23 20:30:00,84.0,78.0,29.89,South,180,11.0,13.0,81,0.00,,,0.00,TxWx,2013-07-24 01:30:00,
2013-07-23 20:33:00,84.0,78.0,29.89,SE,135,8.0,11.0,82,0.00,,,0.00,TxWx,2013-07-24 01:33:00,
2013-07-23 20:34:00,84.0,78.0,29.89,South,180,19.0,19.0,82,0.00,,,0.00,TxWx,2013-07-24 01:34:00,
2013-07-23 20:35:00,84.0,78.0,29.89,South,180,6.0,8.0,82,0.00,,,0.00,TxWx,2013-07-24 01:35:00,
2013-07-23 20:38:00,84.0,78.0,29.88,SSE,157,10.0,10.0,82,0.00,,,0.00,TxWx,2013-07-24 01:38:00,
2013-07-23 20:39:00,84.0,78.0,29.89,SSE,157,10.0,10.0,82,0.00,,,0.00,TxWx,2013-07-24 01:39:00,
2013-07-23 20:41:00,84.0,78.0,29.88,SSW,202,8.0,10.0,82,0.00,,,0.00,TxWx,2013-07-24 01:41:00,
2013-07-23 20:43:00,84.0,78.0,29.88,SSE,157,8.0,8.0,82,0.00,,,0.00,TxWx,2013-07-24 01:43:00,
2013-07-23 20:45:00,84.0,78.0,29.88,South,180,6.0,6.0,83,0.00,,,0.00,TxWx,2013-07-24 01:45:00,
2013-07-23 20:46:00,84.0,78.0,29.88,SSE,157,10.0,10.0,83,0.00,,,0.00,TxWx,2013-07-24 01:46:00,
2013-07-23 20:49:00,84.0,78.0,29.88,South,180,16.0,18.0,83,0.00,,,0.00,TxWx,2013-07-24 01:49:00,
2013-07-23 20:51:00,84.0,78.0,29.88,SE,135,10.0,10.0,83,0.00,,,0.00,TxWx,2013-07-24 01:51:00,
2013-07-23 20:52:00,84.0,78.0,29.88,SSE,157,13.0,14.0,83,0.00,,,0.00,TxWx,2013-07-24 01:52:00,
2013-07-23 20:55:00,84.0,78.0,29.88,SE,135,13.0,15.0,83,0.00,,,0.00,TxWx,2013-07-24 01:55:00,
2013-07-23 20:57:00,84.0,78.0,29.88,SE,135,11.0,11.0,83,0.00,,,0.00,TxWx,2013-07-24 01:57:00,
2013-07-23 20:58:00,84.0,78.0,29.88,SSW,202,15.0,17.0,83,0.00,,,0.00,TxWx,2013-07-24 01:58:00,
2013-07-23 21:02:00,84.0,78.0,29.88,South,180,16.0,16.0,83,0.00,,,0.00,TxWx,2013-07-24 02:02:00,
2013-07-23 21:03:00,84.0,78.0,29.88,South,180,10.0,14.0,83,0.00,,,0.00,TxWx,2013-07-24 02:03:00,
2013-07-23 21:05:00,84.0,78.0,29.88,South,180,10.0,12.0,83,0.00,,,0.00,TxWx,2013-07-24 02:05:00,
2013-07-23 21:06:00,84.0,78.0,29.88,South,180,6.0,8.0,83,0.00,,,0.00,TxWx,2013-07-24 02:06:00,
2013-07-23 21:07:00,84.0,78.0,29.88,South,180,9.0,10.0,83,0.00,,,0.00,TxWx,2013-07-24 02:07:00,
2013-07-23 21:11:00,84.0,78.0,29.88,SSW,202,11.0,11.0,83,0.00,,,0.00,TxWx,2013-07-24 02:11:00,
2013-07-23 21:12:00,84.0,78.0,29.88,South,180,8.0,8.0,83,0.00,,,0.00,TxWx,2013-07-24 02:12:00,
2013-07-23 21:13:00,84.0,78.0,29.88,SSW,202,6.0,8.0,83,0.00,,,0.00,TxWx,2013-07-24 02:13:00,
2013-07-23 21:16:00,84.0,78.0,29.88,SSE,157,12.0,13.0,83,0.00,,,0.00,TxWx,2013-07-24 02:16:00,
2013-07-23 21:18:00,84.0,78.0,29.88,SSW,202,13.0,13.0,83,0.00,,,0.00,TxWx,2013-07-24 02:18:00,
2013-07-23 21:20:00,84.0,78.0,29.88,SSE,157,21.0,21.0,83,0.00,,,0.00,TxWx,2013-07-24 02:20:00,
2013-07-23 21:22:00,84.0,78.0,29.88,SSE,157,10.0,11.0,84,0.00,,,0.00,TxWx,2013-07-24 02:22:00,
2013-07-23 21:23:00,84.0,78.0,29.88,SSE,157,14.0,14.0,83,0.00,,,0.00,TxWx,2013-07-24 02:23:00,
2013-07-23 21:25:00,84.0,78.0,29.88,SSW,202,10.0,10.0,84,0.00,,,0.00,TxWx,2013-07-24 02:25:00,
2013-07-23 21:26:00,84.0,78.0,29.88,SSE,157,8.0,8.0,84,0.00,,,0.00,TxWx,2013-07-24 02:26:00,
2013-07-23 21:28:00,84.0,78.0,29.88,SSW,202,10.0,13.0,84,0.00,,,0.00,TxWx,2013-07-24 02:28:00,
2013-07-23 21:29:00,84.0,78.0,29.88,East,90,6.0,6.0,84,0.00,,,0.00,TxWx,2013-07-24 02:29:00,
2013-07-23 21:31:00,84.0,78.0,29.88,SSW,202,5.0,5.0,84,0.00,,,0.00,TxWx,2013-07-24 02:31:00,
2013-07-23 21:32:00,84.0,78.0,29.88,South,180,10.0,10.0,84,0.00,,,0.00,TxWx,2013-07-24 02:32:00,
2013-07-23 21:35:00,83.0,77.0,29.88,SSE,157,8.0,10.0,84,0.00,,,0.00,TxWx,2013-07-24 02:35:00,
2013-07-23 21:36:00,83.0,77.0,29.89,SSE,157,10.0,10.0,84,0.00,,,0.00,TxWx,2013-07-24 02:36:00,
2013-07-23 21:38:00,83.0,77.0,29.89,SE,135,6.0,6.0,84,0.00,,,0.00,TxWx,2013-07-24 02:38:00,
2013-07-23 21:40:00,83.0,77.0,29.89,SSE,157,7.0,10.0,84,0.00,,,0.00,TxWx,2013-07-24 02:40:00,
2013-07-23 21:43:00,83.0,77.0,29.89,South,180,11.0,14.0,83,0.00,,,0.00,TxWx,2013-07-24 02:43:00,
2013-07-23 21:44:00,83.0,77.0,29.89,SW,225,10.0,12.0,83,0.00,,,0.00,TxWx,2013-07-24 02:44:00,
2013-07-23 21:45:00,83.0,77.0,29.89,South,180,13.0,15.0,83,0.00,,,0.00,TxWx,2013-07-24 02:45:00,
2013-07-23 21:47:00,84.0,78.0,29.89,SSW,202,5.0,6.0,83,0.00,,,0.00,TxWx,2013-07-24 02:47:00,
2013-07-23 21:50:00,83.0,77.0,29.89,South,180,9.0,9.0,83,0.00,,,0.00,TxWx,2013-07-24 02:50:00,
2013-07-23 21:51:00,83.0,77.0,29.89,SSE,157,5.0,5.0,83,0.00,,,0.00,TxWx,2013-07-24 02:51:00,
2013-07-23 21:53:00,83.0,77.0,29.89,SE,135,6.0,6.0,83,0.00,,,0.00,TxWx,2013-07-24 02:53:00,
2013-07-23 21:56:00,83.0,77.0,29.89,SSW,202,13.0,13.0,83,0.00,,,0.00,TxWx,2013-07-24 02:56:00,
2013-07-23 21:58:00,83.0,77.0,29.89,SE,135,9.0,9.0,83,0.00,,,0.00,TxWx,2013-07-24 02:58:00,
2013-07-23 22:02:00,83.0,77.0,29.89,ESE,112,5.0,5.0,83,0.00,,,0.00,TxWx,2013-07-24 03:02:00,
2013-07-23 22:03:00,83.0,77.0,29.89,SSE,157,11.0,11.0,83,0.00,,,0.00,TxWx,2013-07-24 03:03:00,
2013-07-23 22:05:00,83.0,77.0,29.89,South,180,9.0,9.0,83,0.00,,,0.00,TxWx,2013-07-24 03:05:00,
2013-07-23 22:07:00,83.0,77.0,29.89,South,180,11.0,11.0,83,0.00,,,0.00,TxWx,2013-07-24 03:07:00,
2013-07-23 22:08:00,83.0,77.0,29.89,SE,135,9.0,11.0,83,0.00,,,0.00,TxWx,2013-07-24 03:08:00,
2013-07-23 22:09:00,83.0,77.0,29.89,SSW,202,10.0,10.0,83,0.00,,,0.00,TxWx,2013-07-24 03:09:00,
2013-07-23 22:10:00,83.0,77.0,29.89,ESE,112,6.0,6.0,83,0.00,,,0.00,TxWx,2013-07-24 03:10:00,
2013-07-23 22:14:00,83.0,77.0,29.90,South,180,13.0,13.0,83,0.00,,,0.00,TxWx,2013-07-24 03:14:00,
2013-07-23 22:15:00,83.0,77.0,29.90,South,180,6.0,7.0,83,0.00,,,0.00,TxWx,2013-07-24 03:15:00,
2013-07-23 22:16:00,83.0,77.0,29.90,SE,135,7.0,8.0,83,0.00,,,0.00,TxWx,2013-07-24 03:16:00,
2013-07-23 22:19:00,83.0,77.0,29.90,South,180,13.0,14.0,83,0.00,,,0.00,TxWx,2013-07-24 03:19:00,
2013-07-23 22:21:00,83.0,77.0,29.90,SE,135,13.0,13.0,83,0.00,,,0.00,TxWx,2013-07-24 03:21:00,
2013-07-23 22:23:00,83.0,77.0,29.90,South,180,10.0,10.0,83,0.00,,,0.00,TxWx,2013-07-24 03:23:00,
2013-07-23 22:27:00,83.0,77.0,29.90,SSE,157,11.0,11.0,83,0.00,,,0.00,TxWx,2013-07-24 03:27:00,
2013-07-23 22:28:00,83.0,77.0,29.90,SSE,157,7.0,8.0,83,0.00,,,0.00,TxWx,2013-07-24 03:28:00,
2013-07-23 22:33:00,83.0,77.0,29.90,SE,135,6.0,8.0,84,0.00,,,0.00,TxWx,2013-07-24 03:33:00,
2013-07-23 22:34:00,83.0,77.0,29.90,SSE,157,5.0,6.0,84,0.00,,,0.00,TxWx,2013-07-24 03:34:00,
2013-07-23 22:39:00,83.0,77.0,29.91,South,180,6.0,7.0,84,0.00,,,0.00,TxWx,2013-07-24 03:39:00,
2013-07-23 22:40:00,83.0,77.0,29.91,SSE,157,6.0,6.0,84,0.00,,,0.00,TxWx,2013-07-24 03:40:00,
2013-07-23 22:42:00,83.0,77.0,29.91,SE,135,10.0,10.0,84,0.00,,,0.00,TxWx,2013-07-24 03:42:00,
2013-07-23 22:46:00,83.0,77.0,29.91,SSE,157,6.0,7.0,84,0.00,,,0.00,TxWx,2013-07-24 03:46:00,
2013-07-23 22:47:00,83.0,77.0,29.91,South,180,9.0,10.0,84,0.00,,,0.00,TxWx,2013-07-24 03:47:00,
2013-07-23 22:48:00,83.0,77.0,29.91,South,180,6.0,6.0,84,0.00,,,0.00,TxWx,2013-07-24 03:48:00,
2013-07-23 22:51:00,83.0,77.0,29.91,SSE,157,13.0,13.0,84,0.00,,,0.00,TxWx,2013-07-24 03:51:00,
2013-07-23 22:53:00,83.0,77.0,29.91,South,180,10.0,10.0,84,0.00,,,0.00,TxWx,2013-07-24 03:53:00,
2013-07-23 22:54:00,83.0,77.0,29.91,SSE,157,12.0,12.0,84,0.00,,,0.00,TxWx,2013-07-24 03:54:00,
2013-07-23 22:55:00,83.0,77.0,29.91,South,180,11.0,13.0,84,0.00,,,0.00,TxWx,2013-07-24 03:55:00,
2013-07-23 22:58:00,83.0,77.0,29.91,SSE,157,6.0,7.0,84,0.00,,,0.00,TxWx,2013-07-24 03:58:00,
2013-07-23 23:00:00,83.0,77.0,29.91,South,180,6.0,8.0,84,0.00,,,0.00,TxWx,2013-07-24 04:00:00,
2013-07-23 23:01:00,83.0,77.0,29.91,SSE,157,8.0,8.0,84,0.00,,,0.00,TxWx,2013-07-24 04:01:00,
2013-07-23 23:02:00,83.0,77.0,29.91,South,180,13.0,13.0,84,0.00,,,0.00,TxWx,2013-07-24 04:02:00,
2013-07-23 23:03:00,83.0,77.0,29.91,SSE,157,9.0,11.0,84,0.00,,,0.00,TxWx,2013-07-24 04:03:00,
2013-07-23 23:06:00,83.0,77.0,29.91,South,180,8.0,9.0,84,0.00,,,0.00,TxWx,2013-07-24 04:06:00,
2013-07-23 23:07:00,83.0,77.0,29.91,South,180,10.0,10.0,84,0.00,,,0.00,TxWx,2013-07-24 04:07:00,
2013-07-23 23:08:00,83.0,77.0,29.91,South,180,4.0,4.0,84,0.00,,,0.00,TxWx,2013-07-24 04:08:00,
2013-07-23 23:09:00,83.0,77.0,29.91,SSW,202,5.0,6.0,84,0.00,,,0.00,TxWx,2013-07-24 04:09:00,
2013-07-23 23:12:00,83.0,77.0,29.91,SSW,202,9.0,11.0,84,0.00,,,0.00,TxWx,2013-07-24 04:12:00,
2013-07-23 23:13:00,83.0,77.0,29.91,South,180,10.0,10.0,84,0.00,,,0.00,TxWx,2013-07-24 04:13:00,
2013-07-23 23:14:00,83.0,77.0,29.91,SE,135,5.0,7.0,84,0.00,,,0.00,TxWx,2013-07-24 04:14:00,
2013-07-23 23:16:00,83.0,77.0,29.92,SSE,157,8.0,8.0,84,0.00,,,0.00,TxWx,2013-07-24 04:16:00,
2013-07-23 23:19:00,83.0,77.0,29.91,SSW,202,8.0,9.0,84,0.00,,,0.00,TxWx,2013-07-24 04:19:00,
2013-07-23 23:20:00,83.0,77.0,29.92,SSE,157,6.0,7.0,84,0.00,,,0.00,TxWx,2013-07-24 04:20:00,
2013-07-23 23:21:00,83.0,77.0,29.91,SE,135,6.0,8.0,84,0.00,,,0.00,TxWx,2013-07-24 04:21:00,
2013-07-23 23:24:00,83.0,77.0,29.91,SSW,202,10.0,10.0,84,0.00,,,0.00,TxWx,2013-07-24 04:24:00,
2013-07-23 23:25:00,83.0,77.0,29.91,SSE,157,5.0,5.0,84,0.00,,,0.00,TxWx,2013-07-24 04:25:00,
2013-07-23 23:26:00,83.0,77.0,29.91,SSE,157,9.0,11.0,84,0.00,,,0.00,TxWx,2013-07-24 04:26:00,
2013-07-23 23:27:00,83.0,77.0,29.91,SSE,157,7.0,7.0,84,0.00,,,0.00,TxWx,2013-07-24 04:27:00,
2013-07-23 23:28:00,83.0,77.0,29.91,SSE,157,6.0,6.0,84,0.00,,,0.00,TxWx,2013-07-24 04:28:00,
2013-07-23 23:31:00,83.0,77.0,29.91,SSE,157,6.0,6.0,84,0.00,,,0.00,TxWx,2013-07-24 04:31:00,
2013-07-23 23:33:00,83.0,78.0,29.91,SSW,202,8.0,9.0,84,0.00,,,0.00,TxWx,2013-07-24 04:33:00,
2013-07-23 23:35:00,83.0,78.0,29.91,SSE,157,10.0,10.0,84,0.00,,,0.00,TxWx,2013-07-24 04:35:00,
2013-07-23 23:36:00,83.0,78.0,29.91,SSE,157,8.0,13.0,84,0.00,,,0.00,TxWx,2013-07-24 04:36:00,
2013-07-23 23:37:00,83.0,78.0,29.91,SSE,157,9.0,9.0,84,0.00,,,0.00,TxWx,2013-07-24 04:37:00,
2013-07-23 23:38:00,83.0,78.0,29.91,SSW,202,7.0,9.0,84,0.00,,,0.00,TxWx,2013-07-24 04:38:00,
2013-07-23 23:39:00,83.0,78.0,29.91,SSW,202,7.0,8.0,84,0.00,,,0.00,TxWx,2013-07-24 04:39:00,
2013-07-23 23:40:00,83.0,78.0,29.91,SSE,157,11.0,11.0,84,0.00,,,0.00,TxWx,2013-07-24 04:40:00,
2013-07-23 23:42:00,83.0,78.0,29.91,WSW,247,6.0,8.0,84,0.00,,,0.00,TxWx,2013-07-24 04:42:00,
2013-07-23 23:43:00,83.0,78.0,29.91,SSE,157,7.0,7.0,84,0.00,,,0.00,TxWx,2013-07-24 04:43:00,
2013-07-23 23:44:00,83.0,78.0,29.91,SW,225,5.0,5.0,84,0.00,,,0.00,TxWx,2013-07-24 04:44:00,
2013-07-23 23:45:00,83.0,78.0,29.91,South,180,13.0,13.0,84,0.00,,,0.00,TxWx,2013-07-24 04:45:00,
2013-07-23 23:46:00,83.0,78.0,29.91,South,180,8.0,8.0,84,0.00,,,0.00,TxWx,2013-07-24 04:46:00,
2013-07-23 23:47:00,83.0,78.0,29.91,SSW,202,7.0,7.0,84,0.00,,,0.00,TxWx,2013-07-24 04:47:00,
2013-07-23 23:49:00,83.0,78.0,29.91,South,180,11.0,11.0,84,0.00,,,0.00,TxWx,2013-07-24 04:49:00,
2013-07-23 23:50:00,83.0,78.0,29.91,SSE,157,6.0,6.0,84,0.00,,,0.00,TxWx,2013-07-24 04:50:00,
2013-07-23 23:51:00,83.0,78.0,29.91,SSW,202,6.0,7.0,84,0.00,,,0.00,TxWx,2013-07-24 04:51:00,
2013-07-23 23:54:00,83.0,78.0,29.91,South,180,6.0,6.0,84,0.00,,,0.00,TxWx,2013-07-24 04:54:00,
2013-07-23 23:56:00,83.0,78.0,29.91,South,180,8.0,10.0,84,0.00,,,0.00,TxWx,2013-07-24 04:56:00,
2013-07-23 23:58:00,83.0,78.0,29.91,SSW,202,8.0,8.0,84,0.00,,,0.00,TxWx,2013-07-24 04:58:00,
2013-07-23 23:59:00,83.0,78.0,29.91,SSW,202,6.0,6.0,84,0.00,,,0.00,TxWx,2013-07-24 04:59:00,